<?xml version="1.0" encoding="UTF-8" standalone="no" ?>
<gpx xmlns="http://www.topografix.com/GPX/1/1" xmlns:xsi="http://www.w3.org/2001/XMLSchema-instance" xsi:schemaLocation="http://www.topografix.com/GPX/1/1 http://www.topografix.com/GPX/1/1/gpx.xsd" version="1.1" creator="VisuGPX - https://www.visugpx.com">
  <metadata>
    <name>Les Sagnes Longues en boucle S, N</name>
    <desc><![CDATA[grp_trc:]]></desc>
  </metadata>
  <trk>
    <name><![CDATA[Les Sagnes Longues 5 févr. 2021]]></name>
    <cmt><![CDATA[09:18:20]]></cmt>
    <desc><![CDATA[comment ...
Type : [nouvelles]]]></desc>
    <trkseg>
      <trkpt lat="44.71884" lon="6.90429">
        <ele>1973</ele>
        <time>2021-02-05T08:18:22Z</time>
      </trkpt>
      <trkpt lat="44.71884" lon="6.90429">
        <ele>1973</ele>
        <time>2021-02-05T08:18:22Z</time>
      </trkpt>
      <trkpt lat="44.71891" lon="6.90432">
        <ele>1978</ele>
        <time>2021-02-05T08:18:35Z</time>
      </trkpt>
      <trkpt lat="44.71891" lon="6.90443">
        <ele>1979</ele>
        <time>2021-02-05T08:21:54Z</time>
      </trkpt>
      <trkpt lat="44.71893" lon="6.90454">
        <ele>1978</ele>
        <time>2021-02-05T08:22:01Z</time>
      </trkpt>
      <trkpt lat="44.71894" lon="6.90476">
        <ele>1977</ele>
        <time>2021-02-05T08:22:16Z</time>
      </trkpt>
      <trkpt lat="44.7189" lon="6.90485">
        <ele>1977</ele>
        <time>2021-02-05T08:22:23Z</time>
      </trkpt>
      <trkpt lat="44.71887" lon="6.90495">
        <ele>1979</ele>
        <time>2021-02-05T08:23:56Z</time>
      </trkpt>
      <trkpt lat="44.71882" lon="6.90503">
        <ele>1980</ele>
        <time>2021-02-05T08:24:13Z</time>
      </trkpt>
      <trkpt lat="44.71878" lon="6.90513">
        <ele>1978</ele>
        <time>2021-02-05T08:24:24Z</time>
      </trkpt>
      <trkpt lat="44.71873" lon="6.90521">
        <ele>1978</ele>
        <time>2021-02-05T08:24:33Z</time>
      </trkpt>
      <trkpt lat="44.71855" lon="6.90558">
        <ele>1983</ele>
        <time>2021-02-05T08:25:01Z</time>
      </trkpt>
      <trkpt lat="44.71853" lon="6.90569">
        <ele>1983</ele>
        <time>2021-02-05T08:25:08Z</time>
      </trkpt>
      <trkpt lat="44.71845" lon="6.90589">
        <ele>1985</ele>
        <time>2021-02-05T08:25:22Z</time>
      </trkpt>
      <trkpt lat="44.7184" lon="6.90598">
        <ele>1988</ele>
        <time>2021-02-05T08:25:29Z</time>
      </trkpt>
      <trkpt lat="44.71829" lon="6.90626">
        <ele>1988</ele>
        <time>2021-02-05T08:25:52Z</time>
      </trkpt>
      <trkpt lat="44.71824" lon="6.90634">
        <ele>1991</ele>
        <time>2021-02-05T08:25:59Z</time>
      </trkpt>
      <trkpt lat="44.71818" lon="6.90664">
        <ele>1991</ele>
        <time>2021-02-05T08:26:21Z</time>
      </trkpt>
      <trkpt lat="44.71814" lon="6.90675">
        <ele>1994</ele>
        <time>2021-02-05T08:26:29Z</time>
      </trkpt>
      <trkpt lat="44.71815" lon="6.90686">
        <ele>1995</ele>
        <time>2021-02-05T08:26:35Z</time>
      </trkpt>
      <trkpt lat="44.71811" lon="6.90728">
        <ele>1993</ele>
        <time>2021-02-05T08:27:03Z</time>
      </trkpt>
      <trkpt lat="44.71804" lon="6.90779">
        <ele>1990</ele>
        <time>2021-02-05T08:27:35Z</time>
      </trkpt>
      <trkpt lat="44.71799" lon="6.90812">
        <ele>1992</ele>
        <time>2021-02-05T08:27:57Z</time>
      </trkpt>
      <trkpt lat="44.71799" lon="6.90823">
        <ele>1992</ele>
        <time>2021-02-05T08:28:06Z</time>
      </trkpt>
      <trkpt lat="44.7179" lon="6.90876">
        <ele>1994</ele>
        <time>2021-02-05T08:28:41Z</time>
      </trkpt>
      <trkpt lat="44.71777" lon="6.90929">
        <ele>1993</ele>
        <time>2021-02-05T08:29:15Z</time>
      </trkpt>
      <trkpt lat="44.71774" lon="6.90939">
        <ele>1994</ele>
        <time>2021-02-05T08:29:21Z</time>
      </trkpt>
      <trkpt lat="44.71765" lon="6.9099">
        <ele>1996</ele>
        <time>2021-02-05T08:29:54Z</time>
      </trkpt>
      <trkpt lat="44.71763" lon="6.91">
        <ele>1997</ele>
        <time>2021-02-05T08:30:01Z</time>
      </trkpt>
      <trkpt lat="44.71758" lon="6.9101">
        <ele>1999</ele>
        <time>2021-02-05T08:30:07Z</time>
      </trkpt>
      <trkpt lat="44.71757" lon="6.91021">
        <ele>2004</ele>
        <time>2021-02-05T08:30:14Z</time>
      </trkpt>
      <trkpt lat="44.71755" lon="6.91031">
        <ele>2000</ele>
        <time>2021-02-05T08:30:22Z</time>
      </trkpt>
      <trkpt lat="44.71744" lon="6.91047">
        <ele>2000</ele>
        <time>2021-02-05T08:30:42Z</time>
      </trkpt>
      <trkpt lat="44.71728" lon="6.91071">
        <ele>2003</ele>
        <time>2021-02-05T08:31:03Z</time>
      </trkpt>
      <trkpt lat="44.71706" lon="6.91103">
        <ele>1998</ele>
        <time>2021-02-05T08:31:33Z</time>
      </trkpt>
      <trkpt lat="44.71702" lon="6.91112">
        <ele>1999</ele>
        <time>2021-02-05T08:31:39Z</time>
      </trkpt>
      <trkpt lat="44.71695" lon="6.91119">
        <ele>2001</ele>
        <time>2021-02-05T08:31:45Z</time>
      </trkpt>
      <trkpt lat="44.71687" lon="6.91139">
        <ele>2003</ele>
        <time>2021-02-05T08:31:58Z</time>
      </trkpt>
      <trkpt lat="44.71669" lon="6.91185">
        <ele>2006</ele>
        <time>2021-02-05T08:32:29Z</time>
      </trkpt>
      <trkpt lat="44.71659" lon="6.91214">
        <ele>2007</ele>
        <time>2021-02-05T08:32:49Z</time>
      </trkpt>
      <trkpt lat="44.71648" lon="6.91267">
        <ele>2010</ele>
        <time>2021-02-05T08:33:24Z</time>
      </trkpt>
      <trkpt lat="44.71646" lon="6.91278">
        <ele>2011</ele>
        <time>2021-02-05T08:33:31Z</time>
      </trkpt>
      <trkpt lat="44.71629" lon="6.91328">
        <ele>2013</ele>
        <time>2021-02-05T08:34:05Z</time>
      </trkpt>
      <trkpt lat="44.71621" lon="6.91346">
        <ele>2015</ele>
        <time>2021-02-05T08:34:17Z</time>
      </trkpt>
      <trkpt lat="44.71618" lon="6.91356">
        <ele>2017</ele>
        <time>2021-02-05T08:34:24Z</time>
      </trkpt>
      <trkpt lat="44.71611" lon="6.91374">
        <ele>2019</ele>
        <time>2021-02-05T08:34:38Z</time>
      </trkpt>
      <trkpt lat="44.716" lon="6.91391">
        <ele>2020</ele>
        <time>2021-02-05T08:34:52Z</time>
      </trkpt>
      <trkpt lat="44.71574" lon="6.91415">
        <ele>2024</ele>
        <time>2021-02-05T08:35:23Z</time>
      </trkpt>
      <trkpt lat="44.71556" lon="6.91436">
        <ele>2026</ele>
        <time>2021-02-05T08:35:45Z</time>
      </trkpt>
      <trkpt lat="44.71551" lon="6.91445">
        <ele>2027</ele>
        <time>2021-02-05T08:35:52Z</time>
      </trkpt>
      <trkpt lat="44.71548" lon="6.91455">
        <ele>2028</ele>
        <time>2021-02-05T08:35:57Z</time>
      </trkpt>
      <trkpt lat="44.71548" lon="6.91466">
        <ele>2030</ele>
        <time>2021-02-05T08:36:06Z</time>
      </trkpt>
      <trkpt lat="44.7153" lon="6.91488">
        <ele>2028</ele>
        <time>2021-02-05T08:36:29Z</time>
      </trkpt>
      <trkpt lat="44.71512" lon="6.91522">
        <ele>2032</ele>
        <time>2021-02-05T08:36:57Z</time>
      </trkpt>
      <trkpt lat="44.71509" lon="6.91532">
        <ele>2032</ele>
        <time>2021-02-05T08:37:04Z</time>
      </trkpt>
      <trkpt lat="44.71502" lon="6.91585">
        <ele>2032</ele>
        <time>2021-02-05T08:37:34Z</time>
      </trkpt>
      <trkpt lat="44.71485" lon="6.91635">
        <ele>2028</ele>
        <time>2021-02-05T08:38:03Z</time>
      </trkpt>
      <trkpt lat="44.71475" lon="6.91653">
        <ele>2028</ele>
        <time>2021-02-05T08:38:15Z</time>
      </trkpt>
      <trkpt lat="44.71442" lon="6.91685">
        <ele>2032</ele>
        <time>2021-02-05T08:38:50Z</time>
      </trkpt>
      <trkpt lat="44.71406" lon="6.91727">
        <ele>2033</ele>
        <time>2021-02-05T08:39:24Z</time>
      </trkpt>
      <trkpt lat="44.71401" lon="6.91737">
        <ele>2034</ele>
        <time>2021-02-05T08:39:31Z</time>
      </trkpt>
      <trkpt lat="44.71389" lon="6.91752">
        <ele>2034</ele>
        <time>2021-02-05T08:39:44Z</time>
      </trkpt>
      <trkpt lat="44.71382" lon="6.91758">
        <ele>2032</ele>
        <time>2021-02-05T08:39:51Z</time>
      </trkpt>
      <trkpt lat="44.71367" lon="6.91782">
        <ele>2032</ele>
        <time>2021-02-05T08:40:09Z</time>
      </trkpt>
      <trkpt lat="44.71361" lon="6.91789">
        <ele>2034</ele>
        <time>2021-02-05T08:40:24Z</time>
      </trkpt>
      <trkpt lat="44.71357" lon="6.91799">
        <ele>2034</ele>
        <time>2021-02-05T08:40:31Z</time>
      </trkpt>
      <trkpt lat="44.71351" lon="6.91806">
        <ele>2034</ele>
        <time>2021-02-05T08:40:37Z</time>
      </trkpt>
      <trkpt lat="44.71331" lon="6.91824">
        <ele>2036</ele>
        <time>2021-02-05T08:40:57Z</time>
      </trkpt>
      <trkpt lat="44.71327" lon="6.91832">
        <ele>2037</ele>
        <time>2021-02-05T08:41:05Z</time>
      </trkpt>
      <trkpt lat="44.7132" lon="6.91837">
        <ele>2037</ele>
        <time>2021-02-05T08:41:11Z</time>
      </trkpt>
      <trkpt lat="44.71315" lon="6.91845">
        <ele>2036</ele>
        <time>2021-02-05T08:41:17Z</time>
      </trkpt>
      <trkpt lat="44.71283" lon="6.91875">
        <ele>2036</ele>
        <time>2021-02-05T08:41:51Z</time>
      </trkpt>
      <trkpt lat="44.71277" lon="6.91882">
        <ele>2038</ele>
        <time>2021-02-05T08:41:57Z</time>
      </trkpt>
      <trkpt lat="44.71265" lon="6.91894">
        <ele>2043</ele>
        <time>2021-02-05T08:42:10Z</time>
      </trkpt>
      <trkpt lat="44.71255" lon="6.91909">
        <ele>2044</ele>
        <time>2021-02-05T08:42:23Z</time>
      </trkpt>
      <trkpt lat="44.71251" lon="6.91918">
        <ele>2043</ele>
        <time>2021-02-05T08:42:30Z</time>
      </trkpt>
      <trkpt lat="44.71245" lon="6.91926">
        <ele>2043</ele>
        <time>2021-02-05T08:42:37Z</time>
      </trkpt>
      <trkpt lat="44.71234" lon="6.91956">
        <ele>2045</ele>
        <time>2021-02-05T08:42:57Z</time>
      </trkpt>
      <trkpt lat="44.71229" lon="6.91976">
        <ele>2044</ele>
        <time>2021-02-05T08:43:12Z</time>
      </trkpt>
      <trkpt lat="44.71226" lon="6.91986">
        <ele>2042</ele>
        <time>2021-02-05T08:43:19Z</time>
      </trkpt>
      <trkpt lat="44.71208" lon="6.92023">
        <ele>2044</ele>
        <time>2021-02-05T08:43:46Z</time>
      </trkpt>
      <trkpt lat="44.71182" lon="6.92064">
        <ele>2049</ele>
        <time>2021-02-05T08:44:20Z</time>
      </trkpt>
      <trkpt lat="44.71176" lon="6.92071">
        <ele>2049</ele>
        <time>2021-02-05T08:44:27Z</time>
      </trkpt>
      <trkpt lat="44.71172" lon="6.92081">
        <ele>2050</ele>
        <time>2021-02-05T08:44:34Z</time>
      </trkpt>
      <trkpt lat="44.71167" lon="6.92088">
        <ele>2051</ele>
        <time>2021-02-05T08:44:40Z</time>
      </trkpt>
      <trkpt lat="44.71162" lon="6.92097">
        <ele>2052</ele>
        <time>2021-02-05T08:44:47Z</time>
      </trkpt>
      <trkpt lat="44.7114" lon="6.92127">
        <ele>2052</ele>
        <time>2021-02-05T08:45:14Z</time>
      </trkpt>
      <trkpt lat="44.71127" lon="6.92138">
        <ele>2053</ele>
        <time>2021-02-05T08:45:27Z</time>
      </trkpt>
      <trkpt lat="44.7112" lon="6.92143">
        <ele>2055</ele>
        <time>2021-02-05T08:45:33Z</time>
      </trkpt>
      <trkpt lat="44.71115" lon="6.92151">
        <ele>2055</ele>
        <time>2021-02-05T08:45:41Z</time>
      </trkpt>
      <trkpt lat="44.71091" lon="6.92179">
        <ele>2057</ele>
        <time>2021-02-05T08:46:16Z</time>
      </trkpt>
      <trkpt lat="44.7108" lon="6.92194">
        <ele>2059</ele>
        <time>2021-02-05T08:46:30Z</time>
      </trkpt>
      <trkpt lat="44.7107" lon="6.9221">
        <ele>2059</ele>
        <time>2021-02-05T08:46:44Z</time>
      </trkpt>
      <trkpt lat="44.71047" lon="6.92241">
        <ele>2063</ele>
        <time>2021-02-05T08:47:15Z</time>
      </trkpt>
      <trkpt lat="44.71035" lon="6.92253">
        <ele>2066</ele>
        <time>2021-02-05T08:47:31Z</time>
      </trkpt>
      <trkpt lat="44.71027" lon="6.92258">
        <ele>2068</ele>
        <time>2021-02-05T08:47:41Z</time>
      </trkpt>
      <trkpt lat="44.71" lon="6.92274">
        <ele>2072</ele>
        <time>2021-02-05T08:48:14Z</time>
      </trkpt>
      <trkpt lat="44.70985" lon="6.92279">
        <ele>2074</ele>
        <time>2021-02-05T08:48:30Z</time>
      </trkpt>
      <trkpt lat="44.70977" lon="6.92281">
        <ele>2076</ele>
        <time>2021-02-05T08:48:38Z</time>
      </trkpt>
      <trkpt lat="44.70946" lon="6.92287">
        <ele>2075</ele>
        <time>2021-02-05T08:49:09Z</time>
      </trkpt>
      <trkpt lat="44.70939" lon="6.92289">
        <ele>2076</ele>
        <time>2021-02-05T08:49:17Z</time>
      </trkpt>
      <trkpt lat="44.70924" lon="6.92294">
        <ele>2079</ele>
        <time>2021-02-05T08:49:34Z</time>
      </trkpt>
      <trkpt lat="44.70917" lon="6.92297">
        <ele>2081</ele>
        <time>2021-02-05T08:49:41Z</time>
      </trkpt>
      <trkpt lat="44.7091" lon="6.92301">
        <ele>2084</ele>
        <time>2021-02-05T08:49:49Z</time>
      </trkpt>
      <trkpt lat="44.70885" lon="6.92326">
        <ele>2088</ele>
        <time>2021-02-05T08:50:23Z</time>
      </trkpt>
      <trkpt lat="44.70865" lon="6.92361">
        <ele>2089</ele>
        <time>2021-02-05T08:50:56Z</time>
      </trkpt>
      <trkpt lat="44.70859" lon="6.9238">
        <ele>2089</ele>
        <time>2021-02-05T08:51:11Z</time>
      </trkpt>
      <trkpt lat="44.7085" lon="6.92398">
        <ele>2089</ele>
        <time>2021-02-05T08:51:28Z</time>
      </trkpt>
      <trkpt lat="44.70839" lon="6.92411">
        <ele>2092</ele>
        <time>2021-02-05T08:51:42Z</time>
      </trkpt>
      <trkpt lat="44.70832" lon="6.92418">
        <ele>2095</ele>
        <time>2021-02-05T08:51:50Z</time>
      </trkpt>
      <trkpt lat="44.70827" lon="6.92426">
        <ele>2097</ele>
        <time>2021-02-05T08:51:58Z</time>
      </trkpt>
      <trkpt lat="44.70823" lon="6.92436">
        <ele>2098</ele>
        <time>2021-02-05T08:52:05Z</time>
      </trkpt>
      <trkpt lat="44.70813" lon="6.92452">
        <ele>2100</ele>
        <time>2021-02-05T08:52:18Z</time>
      </trkpt>
      <trkpt lat="44.70802" lon="6.9248">
        <ele>2100</ele>
        <time>2021-02-05T08:52:38Z</time>
      </trkpt>
      <trkpt lat="44.70785" lon="6.92515">
        <ele>2102</ele>
        <time>2021-02-05T08:53:09Z</time>
      </trkpt>
      <trkpt lat="44.7078" lon="6.92523">
        <ele>2102</ele>
        <time>2021-02-05T08:53:16Z</time>
      </trkpt>
      <trkpt lat="44.70776" lon="6.92532">
        <ele>2103</ele>
        <time>2021-02-05T08:53:23Z</time>
      </trkpt>
      <trkpt lat="44.70756" lon="6.92578">
        <ele>2105</ele>
        <time>2021-02-05T08:53:58Z</time>
      </trkpt>
      <trkpt lat="44.70748" lon="6.92597">
        <ele>2106</ele>
        <time>2021-02-05T08:54:13Z</time>
      </trkpt>
      <trkpt lat="44.70744" lon="6.92605">
        <ele>2108</ele>
        <time>2021-02-05T08:54:20Z</time>
      </trkpt>
      <trkpt lat="44.7073" lon="6.92644">
        <ele>2108</ele>
        <time>2021-02-05T08:54:50Z</time>
      </trkpt>
      <trkpt lat="44.70726" lon="6.92654">
        <ele>2108</ele>
        <time>2021-02-05T08:54:56Z</time>
      </trkpt>
      <trkpt lat="44.7072" lon="6.92672">
        <ele>2111</ele>
        <time>2021-02-05T08:55:09Z</time>
      </trkpt>
      <trkpt lat="44.70709" lon="6.92725">
        <ele>2117</ele>
        <time>2021-02-05T08:55:44Z</time>
      </trkpt>
      <trkpt lat="44.70707" lon="6.92746">
        <ele>2117</ele>
        <time>2021-02-05T08:55:57Z</time>
      </trkpt>
      <trkpt lat="44.70703" lon="6.92756">
        <ele>2116</ele>
        <time>2021-02-05T08:56:04Z</time>
      </trkpt>
      <trkpt lat="44.707" lon="6.92767">
        <ele>2115</ele>
        <time>2021-02-05T08:56:11Z</time>
      </trkpt>
      <trkpt lat="44.70686" lon="6.92806">
        <ele>2114</ele>
        <time>2021-02-05T08:56:39Z</time>
      </trkpt>
      <trkpt lat="44.70685" lon="6.92817">
        <ele>2114</ele>
        <time>2021-02-05T08:56:45Z</time>
      </trkpt>
      <trkpt lat="44.7067" lon="6.9288">
        <ele>2119</ele>
        <time>2021-02-05T08:57:18Z</time>
      </trkpt>
      <trkpt lat="44.70667" lon="6.9289">
        <ele>2119</ele>
        <time>2021-02-05T08:57:23Z</time>
      </trkpt>
      <trkpt lat="44.70655" lon="6.92906">
        <ele>2120</ele>
        <time>2021-02-05T08:57:36Z</time>
      </trkpt>
      <trkpt lat="44.70649" lon="6.92911">
        <ele>2121</ele>
        <time>2021-02-05T08:57:42Z</time>
      </trkpt>
      <trkpt lat="44.7063" lon="6.92932">
        <ele>2122</ele>
        <time>2021-02-05T08:58:02Z</time>
      </trkpt>
      <trkpt lat="44.70613" lon="6.92956">
        <ele>2119</ele>
        <time>2021-02-05T08:58:22Z</time>
      </trkpt>
      <trkpt lat="44.70602" lon="6.9297">
        <ele>2121</ele>
        <time>2021-02-05T08:58:35Z</time>
      </trkpt>
      <trkpt lat="44.70592" lon="6.92986">
        <ele>2124</ele>
        <time>2021-02-05T08:58:48Z</time>
      </trkpt>
      <trkpt lat="44.70587" lon="6.92994">
        <ele>2126</ele>
        <time>2021-02-05T08:58:55Z</time>
      </trkpt>
      <trkpt lat="44.70571" lon="6.9302">
        <ele>2129</ele>
        <time>2021-02-05T08:59:15Z</time>
      </trkpt>
      <trkpt lat="44.70564" lon="6.93026">
        <ele>2129</ele>
        <time>2021-02-05T08:59:22Z</time>
      </trkpt>
      <trkpt lat="44.70553" lon="6.93041">
        <ele>2126</ele>
        <time>2021-02-05T08:59:36Z</time>
      </trkpt>
      <trkpt lat="44.70548" lon="6.9305">
        <ele>2123</ele>
        <time>2021-02-05T08:59:43Z</time>
      </trkpt>
      <trkpt lat="44.70541" lon="6.93069">
        <ele>2120</ele>
        <time>2021-02-05T08:59:57Z</time>
      </trkpt>
      <trkpt lat="44.70537" lon="6.93077">
        <ele>2120</ele>
        <time>2021-02-05T09:00:03Z</time>
      </trkpt>
      <trkpt lat="44.70529" lon="6.93076">
        <ele>2121</ele>
        <time>2021-02-05T09:00:26Z</time>
      </trkpt>
      <trkpt lat="44.70515" lon="6.93068">
        <ele>2123</ele>
        <time>2021-02-05T09:00:44Z</time>
      </trkpt>
      <trkpt lat="44.70507" lon="6.93068">
        <ele>2125</ele>
        <time>2021-02-05T09:00:52Z</time>
      </trkpt>
      <trkpt lat="44.705" lon="6.93066">
        <ele>2126</ele>
        <time>2021-02-05T09:01:01Z</time>
      </trkpt>
      <trkpt lat="44.70494" lon="6.93057">
        <ele>2128</ele>
        <time>2021-02-05T09:01:56Z</time>
      </trkpt>
      <trkpt lat="44.70489" lon="6.9305">
        <ele>2128</ele>
        <time>2021-02-05T09:02:24Z</time>
      </trkpt>
      <trkpt lat="44.70477" lon="6.93023">
        <ele>2130</ele>
        <time>2021-02-05T09:02:57Z</time>
      </trkpt>
      <trkpt lat="44.70472" lon="6.93014">
        <ele>2132</ele>
        <time>2021-02-05T09:03:08Z</time>
      </trkpt>
      <trkpt lat="44.70468" lon="6.93005">
        <ele>2134</ele>
        <time>2021-02-05T09:03:17Z</time>
      </trkpt>
      <trkpt lat="44.70465" lon="6.92996">
        <ele>2136</ele>
        <time>2021-02-05T09:03:30Z</time>
      </trkpt>
      <trkpt lat="44.70458" lon="6.92993">
        <ele>2137</ele>
        <time>2021-02-05T09:03:41Z</time>
      </trkpt>
      <trkpt lat="44.70443" lon="6.92998">
        <ele>2140</ele>
        <time>2021-02-05T09:04:00Z</time>
      </trkpt>
      <trkpt lat="44.70436" lon="6.93001">
        <ele>2142</ele>
        <time>2021-02-05T09:04:13Z</time>
      </trkpt>
      <trkpt lat="44.70422" lon="6.9301">
        <ele>2144</ele>
        <time>2021-02-05T09:04:38Z</time>
      </trkpt>
      <trkpt lat="44.70415" lon="6.93015">
        <ele>2146</ele>
        <time>2021-02-05T09:04:49Z</time>
      </trkpt>
      <trkpt lat="44.70409" lon="6.93018">
        <ele>2148</ele>
        <time>2021-02-05T09:05:03Z</time>
      </trkpt>
      <trkpt lat="44.70401" lon="6.9302">
        <ele>2150</ele>
        <time>2021-02-05T09:05:17Z</time>
      </trkpt>
      <trkpt lat="44.70398" lon="6.9301">
        <ele>2155</ele>
        <time>2021-02-05T09:05:43Z</time>
      </trkpt>
      <trkpt lat="44.70394" lon="6.93002">
        <ele>2157</ele>
        <time>2021-02-05T09:05:56Z</time>
      </trkpt>
      <trkpt lat="44.70386" lon="6.93001">
        <ele>2159</ele>
        <time>2021-02-05T09:06:06Z</time>
      </trkpt>
      <trkpt lat="44.70379" lon="6.92997">
        <ele>2161</ele>
        <time>2021-02-05T09:06:25Z</time>
      </trkpt>
      <trkpt lat="44.70372" lon="6.92995">
        <ele>2161</ele>
        <time>2021-02-05T09:06:36Z</time>
      </trkpt>
      <trkpt lat="44.70371" lon="6.92985">
        <ele>2162</ele>
        <time>2021-02-05T09:06:54Z</time>
      </trkpt>
      <trkpt lat="44.70375" lon="6.92965">
        <ele>2170</ele>
        <time>2021-02-05T09:07:24Z</time>
      </trkpt>
      <trkpt lat="44.70376" lon="6.92954">
        <ele>2172</ele>
        <time>2021-02-05T09:07:39Z</time>
      </trkpt>
      <trkpt lat="44.70376" lon="6.92943">
        <ele>2175</ele>
        <time>2021-02-05T09:07:52Z</time>
      </trkpt>
      <trkpt lat="44.70374" lon="6.92933">
        <ele>2177</ele>
        <time>2021-02-05T09:08:01Z</time>
      </trkpt>
      <trkpt lat="44.70368" lon="6.92914">
        <ele>2185</ele>
        <time>2021-02-05T09:08:33Z</time>
      </trkpt>
      <trkpt lat="44.70364" lon="6.92904">
        <ele>2188</ele>
        <time>2021-02-05T09:08:47Z</time>
      </trkpt>
      <trkpt lat="44.70366" lon="6.92894">
        <ele>2191</ele>
        <time>2021-02-05T09:09:01Z</time>
      </trkpt>
      <trkpt lat="44.70364" lon="6.92873">
        <ele>2190</ele>
        <time>2021-02-05T09:09:25Z</time>
      </trkpt>
      <trkpt lat="44.70356" lon="6.92874">
        <ele>2190</ele>
        <time>2021-02-05T09:09:44Z</time>
      </trkpt>
      <trkpt lat="44.70352" lon="6.92866">
        <ele>2194</ele>
        <time>2021-02-05T09:10:25Z</time>
      </trkpt>
      <trkpt lat="44.70344" lon="6.92869">
        <ele>2196</ele>
        <time>2021-02-05T09:10:40Z</time>
      </trkpt>
      <trkpt lat="44.70332" lon="6.92881">
        <ele>2198</ele>
        <time>2021-02-05T09:11:02Z</time>
      </trkpt>
      <trkpt lat="44.70326" lon="6.92887">
        <ele>2200</ele>
        <time>2021-02-05T09:11:11Z</time>
      </trkpt>
      <trkpt lat="44.70321" lon="6.92895">
        <ele>2203</ele>
        <time>2021-02-05T09:11:26Z</time>
      </trkpt>
      <trkpt lat="44.70315" lon="6.92902">
        <ele>2206</ele>
        <time>2021-02-05T09:11:37Z</time>
      </trkpt>
      <trkpt lat="44.70308" lon="6.92905">
        <ele>2209</ele>
        <time>2021-02-05T09:11:50Z</time>
      </trkpt>
      <trkpt lat="44.70302" lon="6.9291">
        <ele>2211</ele>
        <time>2021-02-05T09:12:25Z</time>
      </trkpt>
      <trkpt lat="44.70296" lon="6.92916">
        <ele>2213</ele>
        <time>2021-02-05T09:12:36Z</time>
      </trkpt>
      <trkpt lat="44.70289" lon="6.92919">
        <ele>2215</ele>
        <time>2021-02-05T09:12:49Z</time>
      </trkpt>
      <trkpt lat="44.70285" lon="6.92928">
        <ele>2218</ele>
        <time>2021-02-05T09:13:01Z</time>
      </trkpt>
      <trkpt lat="44.70278" lon="6.92927">
        <ele>2224</ele>
        <time>2021-02-05T09:13:34Z</time>
      </trkpt>
      <trkpt lat="44.70278" lon="6.92917">
        <ele>2228</ele>
        <time>2021-02-05T09:13:51Z</time>
      </trkpt>
      <trkpt lat="44.70275" lon="6.92908">
        <ele>2230</ele>
        <time>2021-02-05T09:14:04Z</time>
      </trkpt>
      <trkpt lat="44.70267" lon="6.92908">
        <ele>2231</ele>
        <time>2021-02-05T09:14:17Z</time>
      </trkpt>
      <trkpt lat="44.7026" lon="6.92904">
        <ele>2234</ele>
        <time>2021-02-05T09:14:38Z</time>
      </trkpt>
      <trkpt lat="44.70253" lon="6.92904">
        <ele>2236</ele>
        <time>2021-02-05T09:14:59Z</time>
      </trkpt>
      <trkpt lat="44.70246" lon="6.92908">
        <ele>2239</ele>
        <time>2021-02-05T09:15:15Z</time>
      </trkpt>
      <trkpt lat="44.70239" lon="6.92906">
        <ele>2241</ele>
        <time>2021-02-05T09:15:32Z</time>
      </trkpt>
      <trkpt lat="44.70232" lon="6.92908">
        <ele>2240</ele>
        <time>2021-02-05T09:15:56Z</time>
      </trkpt>
      <trkpt lat="44.70233" lon="6.92898">
        <ele>2242</ele>
        <time>2021-02-05T09:16:23Z</time>
      </trkpt>
      <trkpt lat="44.70231" lon="6.9289">
        <ele>2250</ele>
        <time>2021-02-05T09:16:59Z</time>
      </trkpt>
      <trkpt lat="44.70223" lon="6.92892">
        <ele>2250</ele>
        <time>2021-02-05T09:17:10Z</time>
      </trkpt>
      <trkpt lat="44.70217" lon="6.92888">
        <ele>2249</ele>
        <time>2021-02-05T09:17:26Z</time>
      </trkpt>
      <trkpt lat="44.70218" lon="6.92902">
        <ele>2251</ele>
        <time>2021-02-05T09:17:47Z</time>
      </trkpt>
      <trkpt lat="44.70227" lon="6.92911">
        <ele>2252</ele>
        <time>2021-02-05T09:17:48Z</time>
      </trkpt>
      <trkpt lat="44.70303" lon="6.92934">
        <ele>2252</ele>
        <time>2021-02-05T09:17:51Z</time>
      </trkpt>
      <trkpt lat="44.70317" lon="6.92925">
        <ele>2252</ele>
        <time>2021-02-05T09:17:52Z</time>
      </trkpt>
      <trkpt lat="44.70292" lon="6.92921">
        <ele>2293</ele>
        <time>2021-02-05T09:17:54Z</time>
      </trkpt>
      <trkpt lat="44.70287" lon="6.92907">
        <ele>2324</ele>
        <time>2021-02-05T09:17:56Z</time>
      </trkpt>
      <trkpt lat="44.70277" lon="6.92912">
        <ele>2334</ele>
        <time>2021-02-05T09:17:57Z</time>
      </trkpt>
      <trkpt lat="44.70267" lon="6.92914">
        <ele>2343</ele>
        <time>2021-02-05T09:17:59Z</time>
      </trkpt>
      <trkpt lat="44.70257" lon="6.92909">
        <ele>2348</ele>
        <time>2021-02-05T09:18:03Z</time>
      </trkpt>
      <trkpt lat="44.70251" lon="6.92904">
        <ele>2350</ele>
        <time>2021-02-05T09:18:15Z</time>
      </trkpt>
      <trkpt lat="44.70242" lon="6.92908">
        <ele>2349</ele>
        <time>2021-02-05T09:18:23Z</time>
      </trkpt>
      <trkpt lat="44.70234" lon="6.9291">
        <ele>2347</ele>
        <time>2021-02-05T09:18:29Z</time>
      </trkpt>
      <trkpt lat="44.70219" lon="6.92911">
        <ele>2338</ele>
        <time>2021-02-05T09:18:45Z</time>
      </trkpt>
      <trkpt lat="44.70213" lon="6.92915">
        <ele>2330</ele>
        <time>2021-02-05T09:19:00Z</time>
      </trkpt>
      <trkpt lat="44.70205" lon="6.92913">
        <ele>2330</ele>
        <time>2021-02-05T09:19:07Z</time>
      </trkpt>
      <trkpt lat="44.70203" lon="6.92923">
        <ele>2328</ele>
        <time>2021-02-05T09:19:34Z</time>
      </trkpt>
      <trkpt lat="44.70195" lon="6.92925">
        <ele>2324</ele>
        <time>2021-02-05T09:19:43Z</time>
      </trkpt>
      <trkpt lat="44.70186" lon="6.92944">
        <ele>2304</ele>
        <time>2021-02-05T09:20:15Z</time>
      </trkpt>
      <trkpt lat="44.70181" lon="6.92957">
        <ele>2302</ele>
        <time>2021-02-05T09:20:39Z</time>
      </trkpt>
      <trkpt lat="44.70181" lon="6.92968">
        <ele>2299</ele>
        <time>2021-02-05T09:21:20Z</time>
      </trkpt>
      <trkpt lat="44.70173" lon="6.9297">
        <ele>2299</ele>
        <time>2021-02-05T09:21:39Z</time>
      </trkpt>
      <trkpt lat="44.70166" lon="6.92975">
        <ele>2299</ele>
        <time>2021-02-05T09:21:50Z</time>
      </trkpt>
      <trkpt lat="44.7016" lon="6.9297">
        <ele>2301</ele>
        <time>2021-02-05T09:22:25Z</time>
      </trkpt>
      <trkpt lat="44.70157" lon="6.9296">
        <ele>2301</ele>
        <time>2021-02-05T09:22:36Z</time>
      </trkpt>
      <trkpt lat="44.70156" lon="6.92949">
        <ele>2301</ele>
        <time>2021-02-05T09:22:45Z</time>
      </trkpt>
      <trkpt lat="44.70149" lon="6.92947">
        <ele>2302</ele>
        <time>2021-02-05T09:23:09Z</time>
      </trkpt>
      <trkpt lat="44.70143" lon="6.92951">
        <ele>2305</ele>
        <time>2021-02-05T09:23:18Z</time>
      </trkpt>
      <trkpt lat="44.70135" lon="6.92949">
        <ele>2310</ele>
        <time>2021-02-05T09:23:31Z</time>
      </trkpt>
      <trkpt lat="44.70127" lon="6.92951">
        <ele>2312</ele>
        <time>2021-02-05T09:23:45Z</time>
      </trkpt>
      <trkpt lat="44.70122" lon="6.92944">
        <ele>2318</ele>
        <time>2021-02-05T09:24:19Z</time>
      </trkpt>
      <trkpt lat="44.70108" lon="6.92951">
        <ele>2319</ele>
        <time>2021-02-05T09:24:47Z</time>
      </trkpt>
      <trkpt lat="44.70102" lon="6.92957">
        <ele>2320</ele>
        <time>2021-02-05T09:25:00Z</time>
      </trkpt>
      <trkpt lat="44.70102" lon="6.92967">
        <ele>2321</ele>
        <time>2021-02-05T09:25:39Z</time>
      </trkpt>
      <trkpt lat="44.70099" lon="6.92989">
        <ele>2322</ele>
        <time>2021-02-05T09:26:18Z</time>
      </trkpt>
      <trkpt lat="44.70092" lon="6.92988">
        <ele>2323</ele>
        <time>2021-02-05T09:26:30Z</time>
      </trkpt>
      <trkpt lat="44.70087" lon="6.92981">
        <ele>2325</ele>
        <time>2021-02-05T09:26:42Z</time>
      </trkpt>
      <trkpt lat="44.70083" lon="6.92972">
        <ele>2327</ele>
        <time>2021-02-05T09:26:57Z</time>
      </trkpt>
      <trkpt lat="44.70077" lon="6.92965">
        <ele>2328</ele>
        <time>2021-02-05T09:27:08Z</time>
      </trkpt>
      <trkpt lat="44.70072" lon="6.92957">
        <ele>2330</ele>
        <time>2021-02-05T09:27:18Z</time>
      </trkpt>
      <trkpt lat="44.70068" lon="6.92967">
        <ele>2331</ele>
        <time>2021-02-05T09:27:32Z</time>
      </trkpt>
      <trkpt lat="44.70063" lon="6.92975">
        <ele>2333</ele>
        <time>2021-02-05T09:27:45Z</time>
      </trkpt>
      <trkpt lat="44.70061" lon="6.92985">
        <ele>2336</ele>
        <time>2021-02-05T09:27:57Z</time>
      </trkpt>
      <trkpt lat="44.70055" lon="6.92981">
        <ele>2339</ele>
        <time>2021-02-05T09:28:12Z</time>
      </trkpt>
      <trkpt lat="44.70047" lon="6.92978">
        <ele>2341</ele>
        <time>2021-02-05T09:28:25Z</time>
      </trkpt>
      <trkpt lat="44.70039" lon="6.9298">
        <ele>2344</ele>
        <time>2021-02-05T09:28:44Z</time>
      </trkpt>
      <trkpt lat="44.70039" lon="6.92991">
        <ele>2346</ele>
        <time>2021-02-05T09:28:52Z</time>
      </trkpt>
      <trkpt lat="44.70034" lon="6.93">
        <ele>2347</ele>
        <time>2021-02-05T09:29:08Z</time>
      </trkpt>
      <trkpt lat="44.70038" lon="6.93009">
        <ele>2351</ele>
        <time>2021-02-05T09:29:41Z</time>
      </trkpt>
      <trkpt lat="44.70031" lon="6.93016">
        <ele>2358</ele>
        <time>2021-02-05T09:33:39Z</time>
      </trkpt>
      <trkpt lat="44.70022" lon="6.93033">
        <ele>2357</ele>
        <time>2021-02-05T09:33:59Z</time>
      </trkpt>
      <trkpt lat="44.70015" lon="6.93037">
        <ele>2358</ele>
        <time>2021-02-05T09:34:08Z</time>
      </trkpt>
      <trkpt lat="44.70011" lon="6.93045">
        <ele>2360</ele>
        <time>2021-02-05T09:34:21Z</time>
      </trkpt>
      <trkpt lat="44.70005" lon="6.93051">
        <ele>2369</ele>
        <time>2021-02-05T09:34:55Z</time>
      </trkpt>
      <trkpt lat="44.7" lon="6.93061">
        <ele>2372</ele>
        <time>2021-02-05T09:35:10Z</time>
      </trkpt>
      <trkpt lat="44.69994" lon="6.93067">
        <ele>2372</ele>
        <time>2021-02-05T09:35:16Z</time>
      </trkpt>
      <trkpt lat="44.69986" lon="6.93069">
        <ele>2372</ele>
        <time>2021-02-05T09:35:23Z</time>
      </trkpt>
      <trkpt lat="44.69979" lon="6.93068">
        <ele>2372</ele>
        <time>2021-02-05T09:35:31Z</time>
      </trkpt>
      <trkpt lat="44.69972" lon="6.93071">
        <ele>2372</ele>
        <time>2021-02-05T09:35:42Z</time>
      </trkpt>
      <trkpt lat="44.69957" lon="6.93072">
        <ele>2372</ele>
        <time>2021-02-05T09:35:58Z</time>
      </trkpt>
      <trkpt lat="44.69952" lon="6.9308">
        <ele>2375</ele>
        <time>2021-02-05T09:36:14Z</time>
      </trkpt>
      <trkpt lat="44.69938" lon="6.93084">
        <ele>2380</ele>
        <time>2021-02-05T09:36:34Z</time>
      </trkpt>
      <trkpt lat="44.6969" lon="6.93073">
        <ele>2428</ele>
        <time>2021-02-05T09:44:57Z</time>
      </trkpt>
      <trkpt lat="44.69688" lon="6.93084">
        <ele>2439</ele>
        <time>2021-02-05T09:45:23Z</time>
      </trkpt>
      <trkpt lat="44.69684" lon="6.93093">
        <ele>2444</ele>
        <time>2021-02-05T09:45:39Z</time>
      </trkpt>
      <trkpt lat="44.69678" lon="6.93098">
        <ele>2447</ele>
        <time>2021-02-05T09:45:56Z</time>
      </trkpt>
      <trkpt lat="44.69671" lon="6.93101">
        <ele>2452</ele>
        <time>2021-02-05T09:46:11Z</time>
      </trkpt>
      <trkpt lat="44.69665" lon="6.93108">
        <ele>2454</ele>
        <time>2021-02-05T09:46:26Z</time>
      </trkpt>
      <trkpt lat="44.69658" lon="6.93109">
        <ele>2454</ele>
        <time>2021-02-05T09:46:39Z</time>
      </trkpt>
      <trkpt lat="44.69645" lon="6.9312">
        <ele>2457</ele>
        <time>2021-02-05T09:47:04Z</time>
      </trkpt>
      <trkpt lat="44.69638" lon="6.93122">
        <ele>2458</ele>
        <time>2021-02-05T09:47:15Z</time>
      </trkpt>
      <trkpt lat="44.6963" lon="6.93122">
        <ele>2459</ele>
        <time>2021-02-05T09:47:23Z</time>
      </trkpt>
      <trkpt lat="44.69628" lon="6.93132">
        <ele>2464</ele>
        <time>2021-02-05T09:47:36Z</time>
      </trkpt>
      <trkpt lat="44.69621" lon="6.93137">
        <ele>2465</ele>
        <time>2021-02-05T09:47:48Z</time>
      </trkpt>
      <trkpt lat="44.69613" lon="6.93137">
        <ele>2466</ele>
        <time>2021-02-05T09:47:59Z</time>
      </trkpt>
      <trkpt lat="44.69598" lon="6.93137">
        <ele>2469</ele>
        <time>2021-02-05T09:48:21Z</time>
      </trkpt>
      <trkpt lat="44.69591" lon="6.93139">
        <ele>2472</ele>
        <time>2021-02-05T09:48:35Z</time>
      </trkpt>
      <trkpt lat="44.69584" lon="6.93143">
        <ele>2476</ele>
        <time>2021-02-05T09:48:48Z</time>
      </trkpt>
      <trkpt lat="44.69577" lon="6.93144">
        <ele>2477</ele>
        <time>2021-02-05T09:48:59Z</time>
      </trkpt>
      <trkpt lat="44.69569" lon="6.93144">
        <ele>2479</ele>
        <time>2021-02-05T09:49:10Z</time>
      </trkpt>
      <trkpt lat="44.69562" lon="6.93147">
        <ele>2478</ele>
        <time>2021-02-05T09:49:21Z</time>
      </trkpt>
      <trkpt lat="44.69541" lon="6.93161">
        <ele>2478</ele>
        <time>2021-02-05T09:49:57Z</time>
      </trkpt>
      <trkpt lat="44.69534" lon="6.93162">
        <ele>2480</ele>
        <time>2021-02-05T09:50:07Z</time>
      </trkpt>
      <trkpt lat="44.69519" lon="6.93155">
        <ele>2489</ele>
        <time>2021-02-05T09:50:35Z</time>
      </trkpt>
      <trkpt lat="44.69512" lon="6.93154">
        <ele>2493</ele>
        <time>2021-02-05T09:50:47Z</time>
      </trkpt>
      <trkpt lat="44.69497" lon="6.93149">
        <ele>2495</ele>
        <time>2021-02-05T09:51:12Z</time>
      </trkpt>
      <trkpt lat="44.69489" lon="6.93151">
        <ele>2497</ele>
        <time>2021-02-05T09:51:22Z</time>
      </trkpt>
      <trkpt lat="44.69482" lon="6.9315">
        <ele>2498</ele>
        <time>2021-02-05T09:51:39Z</time>
      </trkpt>
      <trkpt lat="44.69474" lon="6.93146">
        <ele>2500</ele>
        <time>2021-02-05T09:51:51Z</time>
      </trkpt>
      <trkpt lat="44.6946" lon="6.93141">
        <ele>2509</ele>
        <time>2021-02-05T09:52:19Z</time>
      </trkpt>
      <trkpt lat="44.69453" lon="6.93135">
        <ele>2510</ele>
        <time>2021-02-05T09:52:30Z</time>
      </trkpt>
      <trkpt lat="44.69441" lon="6.93122">
        <ele>2517</ele>
        <time>2021-02-05T09:53:02Z</time>
      </trkpt>
      <trkpt lat="44.69437" lon="6.93114">
        <ele>2516</ele>
        <time>2021-02-05T09:53:17Z</time>
      </trkpt>
      <trkpt lat="44.6943" lon="6.9311">
        <ele>2521</ele>
        <time>2021-02-05T09:53:33Z</time>
      </trkpt>
      <trkpt lat="44.69426" lon="6.93101">
        <ele>2522</ele>
        <time>2021-02-05T09:53:43Z</time>
      </trkpt>
      <trkpt lat="44.69419" lon="6.93099">
        <ele>2528</ele>
        <time>2021-02-05T09:53:59Z</time>
      </trkpt>
      <trkpt lat="44.69414" lon="6.9309">
        <ele>2531</ele>
        <time>2021-02-05T09:54:11Z</time>
      </trkpt>
      <trkpt lat="44.69407" lon="6.9309">
        <ele>2533</ele>
        <time>2021-02-05T09:54:26Z</time>
      </trkpt>
      <trkpt lat="44.69399" lon="6.93094">
        <ele>2533</ele>
        <time>2021-02-05T09:54:35Z</time>
      </trkpt>
      <trkpt lat="44.69392" lon="6.93098">
        <ele>2535</ele>
        <time>2021-02-05T09:54:48Z</time>
      </trkpt>
      <trkpt lat="44.69385" lon="6.93099">
        <ele>2536</ele>
        <time>2021-02-05T09:55:00Z</time>
      </trkpt>
      <trkpt lat="44.69378" lon="6.93099">
        <ele>2539</ele>
        <time>2021-02-05T09:55:18Z</time>
      </trkpt>
      <trkpt lat="44.6937" lon="6.93097">
        <ele>2541</ele>
        <time>2021-02-05T09:55:32Z</time>
      </trkpt>
      <trkpt lat="44.69363" lon="6.93095">
        <ele>2543</ele>
        <time>2021-02-05T09:55:43Z</time>
      </trkpt>
      <trkpt lat="44.69356" lon="6.93091">
        <ele>2546</ele>
        <time>2021-02-05T09:55:59Z</time>
      </trkpt>
      <trkpt lat="44.6935" lon="6.93085">
        <ele>2549</ele>
        <time>2021-02-05T09:56:12Z</time>
      </trkpt>
      <trkpt lat="44.69342" lon="6.93082">
        <ele>2552</ele>
        <time>2021-02-05T09:56:24Z</time>
      </trkpt>
      <trkpt lat="44.69335" lon="6.93079">
        <ele>2554</ele>
        <time>2021-02-05T09:56:35Z</time>
      </trkpt>
      <trkpt lat="44.69328" lon="6.93074">
        <ele>2555</ele>
        <time>2021-02-05T09:56:45Z</time>
      </trkpt>
      <trkpt lat="44.69321" lon="6.93072">
        <ele>2558</ele>
        <time>2021-02-05T09:57:51Z</time>
      </trkpt>
      <trkpt lat="44.69313" lon="6.9307">
        <ele>2561</ele>
        <time>2021-02-05T09:58:04Z</time>
      </trkpt>
      <trkpt lat="44.69306" lon="6.93068">
        <ele>2564</ele>
        <time>2021-02-05T09:58:17Z</time>
      </trkpt>
      <trkpt lat="44.69298" lon="6.93066">
        <ele>2567</ele>
        <time>2021-02-05T09:58:28Z</time>
      </trkpt>
      <trkpt lat="44.69292" lon="6.93059">
        <ele>2568</ele>
        <time>2021-02-05T09:58:41Z</time>
      </trkpt>
      <trkpt lat="44.69285" lon="6.93055">
        <ele>2569</ele>
        <time>2021-02-05T09:58:51Z</time>
      </trkpt>
      <trkpt lat="44.69255" lon="6.93053">
        <ele>2570</ele>
        <time>2021-02-05T09:59:26Z</time>
      </trkpt>
      <trkpt lat="44.6924" lon="6.93053">
        <ele>2571</ele>
        <time>2021-02-05T09:59:49Z</time>
      </trkpt>
      <trkpt lat="44.69233" lon="6.93056">
        <ele>2573</ele>
        <time>2021-02-05T10:00:02Z</time>
      </trkpt>
      <trkpt lat="44.69228" lon="6.93065">
        <ele>2576</ele>
        <time>2021-02-05T10:00:41Z</time>
      </trkpt>
      <trkpt lat="44.69224" lon="6.93074">
        <ele>2578</ele>
        <time>2021-02-05T10:00:52Z</time>
      </trkpt>
      <trkpt lat="44.69218" lon="6.9308">
        <ele>2576</ele>
        <time>2021-02-05T10:01:06Z</time>
      </trkpt>
      <trkpt lat="44.69204" lon="6.93082">
        <ele>2576</ele>
        <time>2021-02-05T10:01:24Z</time>
      </trkpt>
      <trkpt lat="44.69196" lon="6.93077">
        <ele>2580</ele>
        <time>2021-02-05T10:01:39Z</time>
      </trkpt>
      <trkpt lat="44.69183" lon="6.9307">
        <ele>2584</ele>
        <time>2021-02-05T10:02:13Z</time>
      </trkpt>
      <trkpt lat="44.69177" lon="6.93063">
        <ele>2585</ele>
        <time>2021-02-05T10:02:24Z</time>
      </trkpt>
      <trkpt lat="44.6917" lon="6.93061">
        <ele>2586</ele>
        <time>2021-02-05T10:02:37Z</time>
      </trkpt>
      <trkpt lat="44.69164" lon="6.93069">
        <ele>2589</ele>
        <time>2021-02-05T10:02:48Z</time>
      </trkpt>
      <trkpt lat="44.69153" lon="6.93082">
        <ele>2596</ele>
        <time>2021-02-05T10:03:15Z</time>
      </trkpt>
      <trkpt lat="44.69146" lon="6.93084">
        <ele>2597</ele>
        <time>2021-02-05T10:03:25Z</time>
      </trkpt>
      <trkpt lat="44.69139" lon="6.93081">
        <ele>2599</ele>
        <time>2021-02-05T10:03:42Z</time>
      </trkpt>
      <trkpt lat="44.69133" lon="6.93072">
        <ele>2602</ele>
        <time>2021-02-05T10:03:56Z</time>
      </trkpt>
      <trkpt lat="44.69127" lon="6.93066">
        <ele>2606</ele>
        <time>2021-02-05T10:04:12Z</time>
      </trkpt>
      <trkpt lat="44.6912" lon="6.93063">
        <ele>2611</ele>
        <time>2021-02-05T10:04:28Z</time>
      </trkpt>
      <trkpt lat="44.69115" lon="6.93056">
        <ele>2613</ele>
        <time>2021-02-05T10:04:39Z</time>
      </trkpt>
      <trkpt lat="44.69109" lon="6.93051">
        <ele>2616</ele>
        <time>2021-02-05T10:04:52Z</time>
      </trkpt>
      <trkpt lat="44.69092" lon="6.93047">
        <ele>2614</ele>
        <time>2021-02-05T10:05:25Z</time>
      </trkpt>
      <trkpt lat="44.69085" lon="6.93044">
        <ele>2616</ele>
        <time>2021-02-05T10:05:36Z</time>
      </trkpt>
      <trkpt lat="44.69078" lon="6.93042">
        <ele>2618</ele>
        <time>2021-02-05T10:05:49Z</time>
      </trkpt>
      <trkpt lat="44.6907" lon="6.93038">
        <ele>2620</ele>
        <time>2021-02-05T10:06:00Z</time>
      </trkpt>
      <trkpt lat="44.69062" lon="6.93031">
        <ele>2622</ele>
        <time>2021-02-05T10:06:21Z</time>
      </trkpt>
      <trkpt lat="44.69048" lon="6.93027">
        <ele>2622</ele>
        <time>2021-02-05T10:06:45Z</time>
      </trkpt>
      <trkpt lat="44.69043" lon="6.93019">
        <ele>2623</ele>
        <time>2021-02-05T10:07:07Z</time>
      </trkpt>
      <trkpt lat="44.69029" lon="6.93014">
        <ele>2626</ele>
        <time>2021-02-05T10:07:36Z</time>
      </trkpt>
      <trkpt lat="44.69016" lon="6.93003">
        <ele>2629</ele>
        <time>2021-02-05T10:08:05Z</time>
      </trkpt>
      <trkpt lat="44.6901" lon="6.92996">
        <ele>2631</ele>
        <time>2021-02-05T10:08:17Z</time>
      </trkpt>
      <trkpt lat="44.69003" lon="6.92994">
        <ele>2635</ele>
        <time>2021-02-05T10:08:33Z</time>
      </trkpt>
      <trkpt lat="44.68997" lon="6.92988">
        <ele>2638</ele>
        <time>2021-02-05T10:08:48Z</time>
      </trkpt>
      <trkpt lat="44.68989" lon="6.92986">
        <ele>2639</ele>
        <time>2021-02-05T10:09:05Z</time>
      </trkpt>
      <trkpt lat="44.68983" lon="6.92981">
        <ele>2641</ele>
        <time>2021-02-05T10:09:17Z</time>
      </trkpt>
      <trkpt lat="44.68978" lon="6.92973">
        <ele>2643</ele>
        <time>2021-02-05T10:09:32Z</time>
      </trkpt>
      <trkpt lat="44.68971" lon="6.92967">
        <ele>2645</ele>
        <time>2021-02-05T10:09:52Z</time>
      </trkpt>
      <trkpt lat="44.68963" lon="6.92962">
        <ele>2648</ele>
        <time>2021-02-05T10:10:13Z</time>
      </trkpt>
      <trkpt lat="44.68956" lon="6.92958">
        <ele>2651</ele>
        <time>2021-02-05T10:10:50Z</time>
      </trkpt>
      <trkpt lat="44.68949" lon="6.92957">
        <ele>2656</ele>
        <time>2021-02-05T10:11:12Z</time>
      </trkpt>
      <trkpt lat="44.68944" lon="6.92964">
        <ele>2659</ele>
        <time>2021-02-05T10:11:28Z</time>
      </trkpt>
      <trkpt lat="44.68932" lon="6.92979">
        <ele>2667</ele>
        <time>2021-02-05T10:11:58Z</time>
      </trkpt>
      <trkpt lat="44.68927" lon="6.92987">
        <ele>2669</ele>
        <time>2021-02-05T10:12:17Z</time>
      </trkpt>
      <trkpt lat="44.68922" lon="6.92995">
        <ele>2673</ele>
        <time>2021-02-05T10:12:52Z</time>
      </trkpt>
      <trkpt lat="44.68916" lon="6.93001">
        <ele>2675</ele>
        <time>2021-02-05T10:13:06Z</time>
      </trkpt>
      <trkpt lat="44.68903" lon="6.93012">
        <ele>2683</ele>
        <time>2021-02-05T10:13:45Z</time>
      </trkpt>
      <trkpt lat="44.68897" lon="6.9302">
        <ele>2684</ele>
        <time>2021-02-05T10:13:58Z</time>
      </trkpt>
      <trkpt lat="44.68885" lon="6.93031">
        <ele>2695</ele>
        <time>2021-02-05T10:14:37Z</time>
      </trkpt>
      <trkpt lat="44.68879" lon="6.93038">
        <ele>2697</ele>
        <time>2021-02-05T10:14:50Z</time>
      </trkpt>
      <trkpt lat="44.68873" lon="6.93032">
        <ele>2699</ele>
        <time>2021-02-05T10:15:05Z</time>
      </trkpt>
      <trkpt lat="44.68866" lon="6.93031">
        <ele>2702</ele>
        <time>2021-02-05T10:15:20Z</time>
      </trkpt>
      <trkpt lat="44.68859" lon="6.93034">
        <ele>2705</ele>
        <time>2021-02-05T10:15:42Z</time>
      </trkpt>
      <trkpt lat="44.68852" lon="6.93033">
        <ele>2708</ele>
        <time>2021-02-05T10:16:02Z</time>
      </trkpt>
      <trkpt lat="44.68845" lon="6.93029">
        <ele>2709</ele>
        <time>2021-02-05T10:16:14Z</time>
      </trkpt>
      <trkpt lat="44.68839" lon="6.93024">
        <ele>2714</ele>
        <time>2021-02-05T10:16:32Z</time>
      </trkpt>
      <trkpt lat="44.68833" lon="6.9303">
        <ele>2716</ele>
        <time>2021-02-05T10:16:55Z</time>
      </trkpt>
      <trkpt lat="44.68829" lon="6.93039">
        <ele>2721</ele>
        <time>2021-02-05T10:17:15Z</time>
      </trkpt>
      <trkpt lat="44.68815" lon="6.93033">
        <ele>2729</ele>
        <time>2021-02-05T10:17:43Z</time>
      </trkpt>
      <trkpt lat="44.68809" lon="6.93028">
        <ele>2733</ele>
        <time>2021-02-05T10:17:58Z</time>
      </trkpt>
      <trkpt lat="44.68802" lon="6.9303">
        <ele>2736</ele>
        <time>2021-02-05T10:18:16Z</time>
      </trkpt>
      <trkpt lat="44.68795" lon="6.93035">
        <ele>2735</ele>
        <time>2021-02-05T10:18:29Z</time>
      </trkpt>
      <trkpt lat="44.68788" lon="6.93035">
        <ele>2735</ele>
        <time>2021-02-05T10:18:45Z</time>
      </trkpt>
      <trkpt lat="44.68781" lon="6.93038">
        <ele>2742</ele>
        <time>2021-02-05T10:19:22Z</time>
      </trkpt>
      <trkpt lat="44.68776" lon="6.93046">
        <ele>2745</ele>
        <time>2021-02-05T10:19:45Z</time>
      </trkpt>
      <trkpt lat="44.6877" lon="6.93051">
        <ele>2747</ele>
        <time>2021-02-05T10:19:57Z</time>
      </trkpt>
      <trkpt lat="44.68764" lon="6.93044">
        <ele>2752</ele>
        <time>2021-02-05T10:20:15Z</time>
      </trkpt>
      <trkpt lat="44.68758" lon="6.9305">
        <ele>2759</ele>
        <time>2021-02-05T10:22:13Z</time>
      </trkpt>
      <trkpt lat="44.68759" lon="6.93061">
        <ele>2760</ele>
        <time>2021-02-05T10:22:25Z</time>
      </trkpt>
      <trkpt lat="44.68757" lon="6.93071">
        <ele>2763</ele>
        <time>2021-02-05T10:22:40Z</time>
      </trkpt>
      <trkpt lat="44.68757" lon="6.93072">
        <ele>2768</ele>
        <time>2021-02-05T10:36:04Z</time>
      </trkpt>
      <trkpt lat="44.68758" lon="6.93046">
        <ele>2765</ele>
        <time>2021-02-05T10:36:09Z</time>
      </trkpt>
      <trkpt lat="44.68758" lon="6.93034">
        <ele>2763</ele>
        <time>2021-02-05T10:36:12Z</time>
      </trkpt>
      <trkpt lat="44.68751" lon="6.93029">
        <ele>2761</ele>
        <time>2021-02-05T10:36:51Z</time>
      </trkpt>
      <trkpt lat="44.68745" lon="6.93023">
        <ele>2759</ele>
        <time>2021-02-05T10:36:54Z</time>
      </trkpt>
      <trkpt lat="44.6873" lon="6.93022">
        <ele>2745</ele>
        <time>2021-02-05T10:38:23Z</time>
      </trkpt>
      <trkpt lat="44.68722" lon="6.9302">
        <ele>2742</ele>
        <time>2021-02-05T10:38:30Z</time>
      </trkpt>
      <trkpt lat="44.68714" lon="6.93028">
        <ele>2740</ele>
        <time>2021-02-05T10:38:34Z</time>
      </trkpt>
      <trkpt lat="44.68707" lon="6.93035">
        <ele>2737</ele>
        <time>2021-02-05T10:38:38Z</time>
      </trkpt>
      <trkpt lat="44.687" lon="6.93033">
        <ele>2734</ele>
        <time>2021-02-05T10:38:43Z</time>
      </trkpt>
      <trkpt lat="44.68698" lon="6.93022">
        <ele>2731</ele>
        <time>2021-02-05T10:38:47Z</time>
      </trkpt>
      <trkpt lat="44.68666" lon="6.93016">
        <ele>2726</ele>
        <time>2021-02-05T10:39:05Z</time>
      </trkpt>
      <trkpt lat="44.68675" lon="6.93013">
        <ele>2723</ele>
        <time>2021-02-05T10:40:53Z</time>
      </trkpt>
      <trkpt lat="44.68672" lon="6.93003">
        <ele>2722</ele>
        <time>2021-02-05T10:40:56Z</time>
      </trkpt>
      <trkpt lat="44.68665" lon="6.93003">
        <ele>2720</ele>
        <time>2021-02-05T10:40:59Z</time>
      </trkpt>
      <trkpt lat="44.68666" lon="6.92992">
        <ele>2716</ele>
        <time>2021-02-05T10:41:03Z</time>
      </trkpt>
      <trkpt lat="44.68666" lon="6.92982">
        <ele>2712</ele>
        <time>2021-02-05T10:41:08Z</time>
      </trkpt>
      <trkpt lat="44.68663" lon="6.92971">
        <ele>2709</ele>
        <time>2021-02-05T10:41:14Z</time>
      </trkpt>
      <trkpt lat="44.68648" lon="6.92957">
        <ele>2706</ele>
        <time>2021-02-05T10:41:23Z</time>
      </trkpt>
      <trkpt lat="44.68646" lon="6.9297">
        <ele>2702</ele>
        <time>2021-02-05T10:41:38Z</time>
      </trkpt>
      <trkpt lat="44.68639" lon="6.92975">
        <ele>2700</ele>
        <time>2021-02-05T10:41:41Z</time>
      </trkpt>
      <trkpt lat="44.68632" lon="6.9298">
        <ele>2696</ele>
        <time>2021-02-05T10:41:47Z</time>
      </trkpt>
      <trkpt lat="44.68632" lon="6.92991">
        <ele>2694</ele>
        <time>2021-02-05T10:41:52Z</time>
      </trkpt>
      <trkpt lat="44.6862" lon="6.93007">
        <ele>2692</ele>
        <time>2021-02-05T10:41:59Z</time>
      </trkpt>
      <trkpt lat="44.68613" lon="6.93005">
        <ele>2688</ele>
        <time>2021-02-05T10:42:04Z</time>
      </trkpt>
      <trkpt lat="44.68603" lon="6.93008">
        <ele>2685</ele>
        <time>2021-02-05T10:42:08Z</time>
      </trkpt>
      <trkpt lat="44.68597" lon="6.93017">
        <ele>2682</ele>
        <time>2021-02-05T10:42:11Z</time>
      </trkpt>
      <trkpt lat="44.68591" lon="6.93022">
        <ele>2679</ele>
        <time>2021-02-05T10:42:15Z</time>
      </trkpt>
      <trkpt lat="44.68583" lon="6.93017">
        <ele>2677</ele>
        <time>2021-02-05T10:42:18Z</time>
      </trkpt>
      <trkpt lat="44.68577" lon="6.93055">
        <ele>2668</ele>
        <time>2021-02-05T10:42:33Z</time>
      </trkpt>
      <trkpt lat="44.68567" lon="6.93023">
        <ele>2665</ele>
        <time>2021-02-05T10:43:03Z</time>
      </trkpt>
      <trkpt lat="44.68564" lon="6.93033">
        <ele>2659</ele>
        <time>2021-02-05T10:43:09Z</time>
      </trkpt>
      <trkpt lat="44.68558" lon="6.93027">
        <ele>2654</ele>
        <time>2021-02-05T10:43:14Z</time>
      </trkpt>
      <trkpt lat="44.6855" lon="6.93031">
        <ele>2650</ele>
        <time>2021-02-05T10:43:22Z</time>
      </trkpt>
      <trkpt lat="44.68548" lon="6.93041">
        <ele>2648</ele>
        <time>2021-02-05T10:43:38Z</time>
      </trkpt>
      <trkpt lat="44.68542" lon="6.9305">
        <ele>2647</ele>
        <time>2021-02-05T10:43:48Z</time>
      </trkpt>
      <trkpt lat="44.68536" lon="6.93055">
        <ele>2644</ele>
        <time>2021-02-05T10:43:56Z</time>
      </trkpt>
      <trkpt lat="44.68536" lon="6.93066">
        <ele>2643</ele>
        <time>2021-02-05T10:44:04Z</time>
      </trkpt>
      <trkpt lat="44.68537" lon="6.93078">
        <ele>2641</ele>
        <time>2021-02-05T10:44:08Z</time>
      </trkpt>
      <trkpt lat="44.68535" lon="6.93091">
        <ele>2639</ele>
        <time>2021-02-05T10:44:10Z</time>
      </trkpt>
      <trkpt lat="44.68529" lon="6.93104">
        <ele>2636</ele>
        <time>2021-02-05T10:44:12Z</time>
      </trkpt>
      <trkpt lat="44.68523" lon="6.93112">
        <ele>2634</ele>
        <time>2021-02-05T10:44:14Z</time>
      </trkpt>
      <trkpt lat="44.68515" lon="6.93116">
        <ele>2632</ele>
        <time>2021-02-05T10:44:16Z</time>
      </trkpt>
      <trkpt lat="44.68493" lon="6.93127">
        <ele>2628</ele>
        <time>2021-02-05T10:44:23Z</time>
      </trkpt>
      <trkpt lat="44.68486" lon="6.93133">
        <ele>2628</ele>
        <time>2021-02-05T10:44:26Z</time>
      </trkpt>
      <trkpt lat="44.6847" lon="6.93149">
        <ele>2625</ele>
        <time>2021-02-05T10:44:32Z</time>
      </trkpt>
      <trkpt lat="44.68459" lon="6.93168">
        <ele>2622</ele>
        <time>2021-02-05T10:44:38Z</time>
      </trkpt>
      <trkpt lat="44.6845" lon="6.93188">
        <ele>2621</ele>
        <time>2021-02-05T10:44:45Z</time>
      </trkpt>
      <trkpt lat="44.6844" lon="6.93206">
        <ele>2621</ele>
        <time>2021-02-05T10:44:52Z</time>
      </trkpt>
      <trkpt lat="44.68435" lon="6.93217">
        <ele>2620</ele>
        <time>2021-02-05T10:44:55Z</time>
      </trkpt>
      <trkpt lat="44.68416" lon="6.93256">
        <ele>2615</ele>
        <time>2021-02-05T10:45:05Z</time>
      </trkpt>
      <trkpt lat="44.68409" lon="6.93279">
        <ele>2613</ele>
        <time>2021-02-05T10:45:12Z</time>
      </trkpt>
      <trkpt lat="44.68397" lon="6.93311">
        <ele>2612</ele>
        <time>2021-02-05T10:45:23Z</time>
      </trkpt>
      <trkpt lat="44.68391" lon="6.93317">
        <ele>2612</ele>
        <time>2021-02-05T10:45:25Z</time>
      </trkpt>
      <trkpt lat="44.68384" lon="6.93321">
        <ele>2611</ele>
        <time>2021-02-05T10:45:27Z</time>
      </trkpt>
      <trkpt lat="44.68369" lon="6.93326">
        <ele>2608</ele>
        <time>2021-02-05T10:45:31Z</time>
      </trkpt>
      <trkpt lat="44.68363" lon="6.93334">
        <ele>2606</ele>
        <time>2021-02-05T10:45:34Z</time>
      </trkpt>
      <trkpt lat="44.68358" lon="6.93347">
        <ele>2604</ele>
        <time>2021-02-05T10:45:38Z</time>
      </trkpt>
      <trkpt lat="44.68339" lon="6.93372">
        <ele>2602</ele>
        <time>2021-02-05T10:45:48Z</time>
      </trkpt>
      <trkpt lat="44.68334" lon="6.93382">
        <ele>2601</ele>
        <time>2021-02-05T10:45:50Z</time>
      </trkpt>
      <trkpt lat="44.68334" lon="6.93407">
        <ele>2599</ele>
        <time>2021-02-05T10:46:02Z</time>
      </trkpt>
      <trkpt lat="44.68339" lon="6.93416">
        <ele>2598</ele>
        <time>2021-02-05T10:56:20Z</time>
      </trkpt>
      <trkpt lat="44.68361" lon="6.93445">
        <ele>2599</ele>
        <time>2021-02-05T10:56:57Z</time>
      </trkpt>
      <trkpt lat="44.68365" lon="6.93454">
        <ele>2601</ele>
        <time>2021-02-05T10:57:06Z</time>
      </trkpt>
      <trkpt lat="44.68372" lon="6.93457">
        <ele>2602</ele>
        <time>2021-02-05T10:57:20Z</time>
      </trkpt>
      <trkpt lat="44.68379" lon="6.9346">
        <ele>2604</ele>
        <time>2021-02-05T10:57:32Z</time>
      </trkpt>
      <trkpt lat="44.6839" lon="6.93474">
        <ele>2608</ele>
        <time>2021-02-05T10:57:57Z</time>
      </trkpt>
      <trkpt lat="44.68391" lon="6.93484">
        <ele>2611</ele>
        <time>2021-02-05T10:58:12Z</time>
      </trkpt>
      <trkpt lat="44.68387" lon="6.93493">
        <ele>2612</ele>
        <time>2021-02-05T10:58:26Z</time>
      </trkpt>
      <trkpt lat="44.68385" lon="6.93503">
        <ele>2614</ele>
        <time>2021-02-05T10:58:38Z</time>
      </trkpt>
      <trkpt lat="44.68382" lon="6.93512">
        <ele>2617</ele>
        <time>2021-02-05T10:58:54Z</time>
      </trkpt>
      <trkpt lat="44.68383" lon="6.93523">
        <ele>2619</ele>
        <time>2021-02-05T10:59:06Z</time>
      </trkpt>
      <trkpt lat="44.68389" lon="6.93529">
        <ele>2621</ele>
        <time>2021-02-05T10:59:20Z</time>
      </trkpt>
      <trkpt lat="44.68388" lon="6.93539">
        <ele>2624</ele>
        <time>2021-02-05T10:59:48Z</time>
      </trkpt>
      <trkpt lat="44.68383" lon="6.93547">
        <ele>2626</ele>
        <time>2021-02-05T11:00:00Z</time>
      </trkpt>
      <trkpt lat="44.68382" lon="6.93557">
        <ele>2627</ele>
        <time>2021-02-05T11:00:16Z</time>
      </trkpt>
      <trkpt lat="44.68395" lon="6.93567">
        <ele>2630</ele>
        <time>2021-02-05T11:00:46Z</time>
      </trkpt>
      <trkpt lat="44.68402" lon="6.93564">
        <ele>2634</ele>
        <time>2021-02-05T11:01:26Z</time>
      </trkpt>
      <trkpt lat="44.6841" lon="6.93564">
        <ele>2635</ele>
        <time>2021-02-05T11:01:41Z</time>
      </trkpt>
      <trkpt lat="44.68418" lon="6.93573">
        <ele>2639</ele>
        <time>2021-02-05T11:02:10Z</time>
      </trkpt>
      <trkpt lat="44.68416" lon="6.93582">
        <ele>2642</ele>
        <time>2021-02-05T11:02:22Z</time>
      </trkpt>
      <trkpt lat="44.68415" lon="6.93593">
        <ele>2644</ele>
        <time>2021-02-05T11:02:34Z</time>
      </trkpt>
      <trkpt lat="44.68412" lon="6.93603">
        <ele>2647</ele>
        <time>2021-02-05T11:02:48Z</time>
      </trkpt>
      <trkpt lat="44.68409" lon="6.93612">
        <ele>2649</ele>
        <time>2021-02-05T11:02:59Z</time>
      </trkpt>
      <trkpt lat="44.68404" lon="6.93621">
        <ele>2652</ele>
        <time>2021-02-05T11:03:10Z</time>
      </trkpt>
      <trkpt lat="44.68411" lon="6.93625">
        <ele>2655</ele>
        <time>2021-02-05T11:03:23Z</time>
      </trkpt>
      <trkpt lat="44.68417" lon="6.93632">
        <ele>2657</ele>
        <time>2021-02-05T11:03:36Z</time>
      </trkpt>
      <trkpt lat="44.68424" lon="6.93637">
        <ele>2660</ele>
        <time>2021-02-05T11:03:48Z</time>
      </trkpt>
      <trkpt lat="44.6843" lon="6.93634">
        <ele>2661</ele>
        <time>2021-02-05T11:03:59Z</time>
      </trkpt>
      <trkpt lat="44.68434" lon="6.93642">
        <ele>2667</ele>
        <time>2021-02-05T11:04:18Z</time>
      </trkpt>
      <trkpt lat="44.68432" lon="6.93652">
        <ele>2669</ele>
        <time>2021-02-05T11:04:30Z</time>
      </trkpt>
      <trkpt lat="44.6843" lon="6.93662">
        <ele>2671</ele>
        <time>2021-02-05T11:04:42Z</time>
      </trkpt>
      <trkpt lat="44.68425" lon="6.93669">
        <ele>2672</ele>
        <time>2021-02-05T11:04:53Z</time>
      </trkpt>
      <trkpt lat="44.68421" lon="6.93678">
        <ele>2675</ele>
        <time>2021-02-05T11:05:10Z</time>
      </trkpt>
      <trkpt lat="44.68428" lon="6.93683">
        <ele>2678</ele>
        <time>2021-02-05T11:05:24Z</time>
      </trkpt>
      <trkpt lat="44.68435" lon="6.93686">
        <ele>2680</ele>
        <time>2021-02-05T11:05:39Z</time>
      </trkpt>
      <trkpt lat="44.68435" lon="6.93696">
        <ele>2683</ele>
        <time>2021-02-05T11:05:55Z</time>
      </trkpt>
      <trkpt lat="44.68433" lon="6.93707">
        <ele>2685</ele>
        <time>2021-02-05T11:06:12Z</time>
      </trkpt>
      <trkpt lat="44.6843" lon="6.93717">
        <ele>2689</ele>
        <time>2021-02-05T11:06:26Z</time>
      </trkpt>
      <trkpt lat="44.68432" lon="6.93727">
        <ele>2691</ele>
        <time>2021-02-05T11:07:01Z</time>
      </trkpt>
      <trkpt lat="44.68433" lon="6.93737">
        <ele>2695</ele>
        <time>2021-02-05T11:07:18Z</time>
      </trkpt>
      <trkpt lat="44.68439" lon="6.93743">
        <ele>2697</ele>
        <time>2021-02-05T11:07:32Z</time>
      </trkpt>
      <trkpt lat="44.68446" lon="6.93746">
        <ele>2701</ele>
        <time>2021-02-05T11:07:47Z</time>
      </trkpt>
      <trkpt lat="44.68452" lon="6.93753">
        <ele>2702</ele>
        <time>2021-02-05T11:08:01Z</time>
      </trkpt>
      <trkpt lat="44.68455" lon="6.93763">
        <ele>2704</ele>
        <time>2021-02-05T11:08:15Z</time>
      </trkpt>
      <trkpt lat="44.68457" lon="6.93773">
        <ele>2706</ele>
        <time>2021-02-05T11:08:31Z</time>
      </trkpt>
      <trkpt lat="44.68464" lon="6.9377">
        <ele>2708</ele>
        <time>2021-02-05T11:09:00Z</time>
      </trkpt>
      <trkpt lat="44.6847" lon="6.93761">
        <ele>2710</ele>
        <time>2021-02-05T11:09:13Z</time>
      </trkpt>
      <trkpt lat="44.68475" lon="6.93767">
        <ele>2717</ele>
        <time>2021-02-05T11:09:58Z</time>
      </trkpt>
      <trkpt lat="44.68478" lon="6.93777">
        <ele>2718</ele>
        <time>2021-02-05T11:10:10Z</time>
      </trkpt>
      <trkpt lat="44.6848" lon="6.93788">
        <ele>2722</ele>
        <time>2021-02-05T11:10:27Z</time>
      </trkpt>
      <trkpt lat="44.68478" lon="6.93798">
        <ele>2725</ele>
        <time>2021-02-05T11:10:42Z</time>
      </trkpt>
      <trkpt lat="44.68481" lon="6.93808">
        <ele>2727</ele>
        <time>2021-02-05T11:10:53Z</time>
      </trkpt>
      <trkpt lat="44.68486" lon="6.93828">
        <ele>2731</ele>
        <time>2021-02-05T11:11:18Z</time>
      </trkpt>
      <trkpt lat="44.68487" lon="6.93838">
        <ele>2733</ele>
        <time>2021-02-05T11:11:29Z</time>
      </trkpt>
      <trkpt lat="44.68493" lon="6.93834">
        <ele>2737</ele>
        <time>2021-02-05T11:11:50Z</time>
      </trkpt>
      <trkpt lat="44.68503" lon="6.93805">
        <ele>2740</ele>
        <time>2021-02-05T11:12:32Z</time>
      </trkpt>
      <trkpt lat="44.68512" lon="6.93788">
        <ele>2742</ele>
        <time>2021-02-05T11:12:55Z</time>
      </trkpt>
      <trkpt lat="44.68518" lon="6.93781">
        <ele>2742</ele>
        <time>2021-02-05T11:13:08Z</time>
      </trkpt>
      <trkpt lat="44.68524" lon="6.93776">
        <ele>2744</ele>
        <time>2021-02-05T11:13:25Z</time>
      </trkpt>
      <trkpt lat="44.68527" lon="6.93786">
        <ele>2748</ele>
        <time>2021-02-05T11:14:00Z</time>
      </trkpt>
      <trkpt lat="44.68527" lon="6.93796">
        <ele>2751</ele>
        <time>2021-02-05T11:14:12Z</time>
      </trkpt>
      <trkpt lat="44.68528" lon="6.93806">
        <ele>2753</ele>
        <time>2021-02-05T11:14:24Z</time>
      </trkpt>
      <trkpt lat="44.68534" lon="6.93814">
        <ele>2755</ele>
        <time>2021-02-05T11:14:44Z</time>
      </trkpt>
      <trkpt lat="44.68538" lon="6.93805">
        <ele>2756</ele>
        <time>2021-02-05T11:14:53Z</time>
      </trkpt>
      <trkpt lat="44.68542" lon="6.93813">
        <ele>2758</ele>
        <time>2021-02-05T11:15:19Z</time>
      </trkpt>
      <trkpt lat="44.68543" lon="6.93835">
        <ele>2761</ele>
        <time>2021-02-05T11:15:44Z</time>
      </trkpt>
      <trkpt lat="44.68544" lon="6.93846">
        <ele>2764</ele>
        <time>2021-02-05T11:15:59Z</time>
      </trkpt>
      <trkpt lat="44.68558" lon="6.93836">
        <ele>2770</ele>
        <time>2021-02-05T11:16:37Z</time>
      </trkpt>
      <trkpt lat="44.68564" lon="6.93832">
        <ele>2771</ele>
        <time>2021-02-05T11:16:49Z</time>
      </trkpt>
      <trkpt lat="44.68572" lon="6.9383">
        <ele>2774</ele>
        <time>2021-02-05T11:17:09Z</time>
      </trkpt>
      <trkpt lat="44.68577" lon="6.93837">
        <ele>2777</ele>
        <time>2021-02-05T11:17:52Z</time>
      </trkpt>
      <trkpt lat="44.68577" lon="6.93847">
        <ele>2781</ele>
        <time>2021-02-05T11:18:02Z</time>
      </trkpt>
      <trkpt lat="44.68575" lon="6.93857">
        <ele>2784</ele>
        <time>2021-02-05T11:18:16Z</time>
      </trkpt>
      <trkpt lat="44.68583" lon="6.93863">
        <ele>2788</ele>
        <time>2021-02-05T11:18:54Z</time>
      </trkpt>
      <trkpt lat="44.68582" lon="6.93874">
        <ele>2789</ele>
        <time>2021-02-05T11:19:05Z</time>
      </trkpt>
      <trkpt lat="44.68579" lon="6.93885">
        <ele>2792</ele>
        <time>2021-02-05T11:19:17Z</time>
      </trkpt>
      <trkpt lat="44.6858" lon="6.93895">
        <ele>2794</ele>
        <time>2021-02-05T11:19:35Z</time>
      </trkpt>
      <trkpt lat="44.68581" lon="6.93915">
        <ele>2798</ele>
        <time>2021-02-05T11:20:07Z</time>
      </trkpt>
      <trkpt lat="44.68578" lon="6.93946">
        <ele>2803</ele>
        <time>2021-02-05T11:20:46Z</time>
      </trkpt>
      <trkpt lat="44.68577" lon="6.93956">
        <ele>2806</ele>
        <time>2021-02-05T11:21:01Z</time>
      </trkpt>
      <trkpt lat="44.68575" lon="6.93967">
        <ele>2808</ele>
        <time>2021-02-05T11:21:18Z</time>
      </trkpt>
      <trkpt lat="44.68574" lon="6.93977">
        <ele>2811</ele>
        <time>2021-02-05T11:21:33Z</time>
      </trkpt>
      <trkpt lat="44.68581" lon="6.93978">
        <ele>2814</ele>
        <time>2021-02-05T11:22:09Z</time>
      </trkpt>
      <trkpt lat="44.68588" lon="6.93973">
        <ele>2816</ele>
        <time>2021-02-05T11:22:24Z</time>
      </trkpt>
      <trkpt lat="44.68589" lon="6.93983">
        <ele>2819</ele>
        <time>2021-02-05T11:22:43Z</time>
      </trkpt>
      <trkpt lat="44.68588" lon="6.93994">
        <ele>2822</ele>
        <time>2021-02-05T11:23:03Z</time>
      </trkpt>
      <trkpt lat="44.68589" lon="6.94004">
        <ele>2825</ele>
        <time>2021-02-05T11:23:16Z</time>
      </trkpt>
      <trkpt lat="44.6859" lon="6.94014">
        <ele>2828</ele>
        <time>2021-02-05T11:23:29Z</time>
      </trkpt>
      <trkpt lat="44.68597" lon="6.94012">
        <ele>2833</ele>
        <time>2021-02-05T11:23:50Z</time>
      </trkpt>
      <trkpt lat="44.68603" lon="6.94006">
        <ele>2833</ele>
        <time>2021-02-05T11:24:05Z</time>
      </trkpt>
      <trkpt lat="44.6861" lon="6.94003">
        <ele>2834</ele>
        <time>2021-02-05T11:24:19Z</time>
      </trkpt>
      <trkpt lat="44.68616" lon="6.93997">
        <ele>2836</ele>
        <time>2021-02-05T11:24:32Z</time>
      </trkpt>
      <trkpt lat="44.68623" lon="6.93992">
        <ele>2838</ele>
        <time>2021-02-05T11:24:51Z</time>
      </trkpt>
      <trkpt lat="44.68629" lon="6.93986">
        <ele>2840</ele>
        <time>2021-02-05T11:25:06Z</time>
      </trkpt>
      <trkpt lat="44.68635" lon="6.93982">
        <ele>2842</ele>
        <time>2021-02-05T11:25:22Z</time>
      </trkpt>
      <trkpt lat="44.68641" lon="6.93975">
        <ele>2845</ele>
        <time>2021-02-05T11:25:40Z</time>
      </trkpt>
      <trkpt lat="44.68647" lon="6.9397">
        <ele>2846</ele>
        <time>2021-02-05T11:25:56Z</time>
      </trkpt>
      <trkpt lat="44.68652" lon="6.93962">
        <ele>2847</ele>
        <time>2021-02-05T11:26:04Z</time>
      </trkpt>
      <trkpt lat="44.68659" lon="6.93957">
        <ele>2848</ele>
        <time>2021-02-05T11:26:12Z</time>
      </trkpt>
      <trkpt lat="44.68666" lon="6.93956">
        <ele>2851</ele>
        <time>2021-02-05T11:26:21Z</time>
      </trkpt>
      <trkpt lat="44.68673" lon="6.93951">
        <ele>2855</ele>
        <time>2021-02-05T11:26:37Z</time>
      </trkpt>
      <trkpt lat="44.68675" lon="6.93961">
        <ele>2859</ele>
        <time>2021-02-05T11:26:57Z</time>
      </trkpt>
      <trkpt lat="44.6868" lon="6.93969">
        <ele>2865</ele>
        <time>2021-02-05T11:27:17Z</time>
      </trkpt>
      <trkpt lat="44.68687" lon="6.93967">
        <ele>2867</ele>
        <time>2021-02-05T11:27:26Z</time>
      </trkpt>
      <trkpt lat="44.68687" lon="6.93967">
        <ele>2867</ele>
        <time>2021-02-05T11:30:59Z</time>
      </trkpt>
      <trkpt lat="44.68686" lon="6.93977">
        <ele>2870</ele>
        <time>2021-02-05T11:31:11Z</time>
      </trkpt>
      <trkpt lat="44.68685" lon="6.94009">
        <ele>2874</ele>
        <time>2021-02-05T11:31:52Z</time>
      </trkpt>
      <trkpt lat="44.68684" lon="6.94019">
        <ele>2876</ele>
        <time>2021-02-05T11:32:03Z</time>
      </trkpt>
      <trkpt lat="44.68684" lon="6.9403">
        <ele>2878</ele>
        <time>2021-02-05T11:32:14Z</time>
      </trkpt>
      <trkpt lat="44.6868" lon="6.94039">
        <ele>2880</ele>
        <time>2021-02-05T11:32:24Z</time>
      </trkpt>
      <trkpt lat="44.6868" lon="6.9405">
        <ele>2881</ele>
        <time>2021-02-05T11:32:36Z</time>
      </trkpt>
      <trkpt lat="44.68677" lon="6.94071">
        <ele>2885</ele>
        <time>2021-02-05T11:32:59Z</time>
      </trkpt>
      <trkpt lat="44.68675" lon="6.94081">
        <ele>2887</ele>
        <time>2021-02-05T11:33:11Z</time>
      </trkpt>
      <trkpt lat="44.68673" lon="6.94091">
        <ele>2889</ele>
        <time>2021-02-05T11:33:22Z</time>
      </trkpt>
      <trkpt lat="44.68671" lon="6.94102">
        <ele>2891</ele>
        <time>2021-02-05T11:33:34Z</time>
      </trkpt>
      <trkpt lat="44.6867" lon="6.94112">
        <ele>2893</ele>
        <time>2021-02-05T11:33:46Z</time>
      </trkpt>
      <trkpt lat="44.68669" lon="6.94122">
        <ele>2895</ele>
        <time>2021-02-05T11:33:58Z</time>
      </trkpt>
      <trkpt lat="44.68668" lon="6.94132">
        <ele>2898</ele>
        <time>2021-02-05T11:34:12Z</time>
      </trkpt>
      <trkpt lat="44.68668" lon="6.94143">
        <ele>2900</ele>
        <time>2021-02-05T11:34:26Z</time>
      </trkpt>
      <trkpt lat="44.68668" lon="6.94153">
        <ele>2903</ele>
        <time>2021-02-05T11:34:41Z</time>
      </trkpt>
      <trkpt lat="44.68667" lon="6.94174">
        <ele>2907</ele>
        <time>2021-02-05T11:35:11Z</time>
      </trkpt>
      <trkpt lat="44.68674" lon="6.94176">
        <ele>2906</ele>
        <time>2021-02-05T11:35:30Z</time>
      </trkpt>
      <trkpt lat="44.68678" lon="6.94186">
        <ele>2909</ele>
        <time>2021-02-05T11:35:41Z</time>
      </trkpt>
      <trkpt lat="44.68679" lon="6.94196">
        <ele>2912</ele>
        <time>2021-02-05T11:35:55Z</time>
      </trkpt>
      <trkpt lat="44.6868" lon="6.94206">
        <ele>2916</ele>
        <time>2021-02-05T11:36:11Z</time>
      </trkpt>
      <trkpt lat="44.68679" lon="6.94217">
        <ele>2918</ele>
        <time>2021-02-05T11:36:27Z</time>
      </trkpt>
      <trkpt lat="44.68679" lon="6.94239">
        <ele>2926</ele>
        <time>2021-02-05T11:37:13Z</time>
      </trkpt>
      <trkpt lat="44.68681" lon="6.9425">
        <ele>2928</ele>
        <time>2021-02-05T11:37:26Z</time>
      </trkpt>
      <trkpt lat="44.68683" lon="6.9426">
        <ele>2930</ele>
        <time>2021-02-05T11:37:38Z</time>
      </trkpt>
      <trkpt lat="44.68685" lon="6.9427">
        <ele>2932</ele>
        <time>2021-02-05T11:37:53Z</time>
      </trkpt>
      <trkpt lat="44.68687" lon="6.9428">
        <ele>2935</ele>
        <time>2021-02-05T11:38:09Z</time>
      </trkpt>
      <trkpt lat="44.68693" lon="6.94288">
        <ele>2938</ele>
        <time>2021-02-05T11:38:44Z</time>
      </trkpt>
      <trkpt lat="44.68695" lon="6.94298">
        <ele>2937</ele>
        <time>2021-02-05T11:39:08Z</time>
      </trkpt>
      <trkpt lat="44.68696" lon="6.94309">
        <ele>2942</ele>
        <time>2021-02-05T11:40:39Z</time>
      </trkpt>
      <trkpt lat="44.68697" lon="6.94319">
        <ele>2943</ele>
        <time>2021-02-05T11:40:54Z</time>
      </trkpt>
      <trkpt lat="44.68705" lon="6.94348">
        <ele>2946</ele>
        <time>2021-02-05T11:41:32Z</time>
      </trkpt>
      <trkpt lat="44.68711" lon="6.94368">
        <ele>2947</ele>
        <time>2021-02-05T11:41:48Z</time>
      </trkpt>
      <trkpt lat="44.68712" lon="6.94389">
        <ele>2948</ele>
        <time>2021-02-05T11:42:13Z</time>
      </trkpt>
      <trkpt lat="44.68711" lon="6.944">
        <ele>2951</ele>
        <time>2021-02-05T11:42:32Z</time>
      </trkpt>
      <trkpt lat="44.6871" lon="6.9441">
        <ele>2954</ele>
        <time>2021-02-05T11:42:45Z</time>
      </trkpt>
      <trkpt lat="44.68715" lon="6.94431">
        <ele>2959</ele>
        <time>2021-02-05T11:43:16Z</time>
      </trkpt>
      <trkpt lat="44.68717" lon="6.94441">
        <ele>2959</ele>
        <time>2021-02-05T11:43:29Z</time>
      </trkpt>
      <trkpt lat="44.68718" lon="6.94462">
        <ele>2961</ele>
        <time>2021-02-05T11:43:51Z</time>
      </trkpt>
      <trkpt lat="44.68718" lon="6.94473">
        <ele>2963</ele>
        <time>2021-02-05T11:44:04Z</time>
      </trkpt>
      <trkpt lat="44.68716" lon="6.94483">
        <ele>2967</ele>
        <time>2021-02-05T11:44:44Z</time>
      </trkpt>
      <trkpt lat="44.6872" lon="6.94514">
        <ele>2969</ele>
        <time>2021-02-05T11:45:13Z</time>
      </trkpt>
      <trkpt lat="44.6872" lon="6.94525">
        <ele>2971</ele>
        <time>2021-02-05T11:45:25Z</time>
      </trkpt>
      <trkpt lat="44.68723" lon="6.94536">
        <ele>2972</ele>
        <time>2021-02-05T11:45:37Z</time>
      </trkpt>
      <trkpt lat="44.68723" lon="6.94547">
        <ele>2973</ele>
        <time>2021-02-05T11:45:50Z</time>
      </trkpt>
      <trkpt lat="44.68723" lon="6.94557">
        <ele>2975</ele>
        <time>2021-02-05T11:46:00Z</time>
      </trkpt>
      <trkpt lat="44.68726" lon="6.94567">
        <ele>2976</ele>
        <time>2021-02-05T11:46:11Z</time>
      </trkpt>
      <trkpt lat="44.68729" lon="6.94589">
        <ele>2979</ele>
        <time>2021-02-05T11:46:34Z</time>
      </trkpt>
      <trkpt lat="44.68732" lon="6.94599">
        <ele>2982</ele>
        <time>2021-02-05T11:46:45Z</time>
      </trkpt>
      <trkpt lat="44.68733" lon="6.94609">
        <ele>2984</ele>
        <time>2021-02-05T11:46:53Z</time>
      </trkpt>
      <trkpt lat="44.68734" lon="6.9462">
        <ele>2986</ele>
        <time>2021-02-05T11:47:16Z</time>
      </trkpt>
      <trkpt lat="44.68737" lon="6.94641">
        <ele>2989</ele>
        <time>2021-02-05T11:47:37Z</time>
      </trkpt>
      <trkpt lat="44.68739" lon="6.9465">
        <ele>2990</ele>
        <time>2021-02-05T11:47:49Z</time>
      </trkpt>
      <trkpt lat="44.68734" lon="6.94658">
        <ele>2990</ele>
        <time>2021-02-05T11:54:39Z</time>
      </trkpt>
      <trkpt lat="44.68735" lon="6.94657">
        <ele>2990</ele>
        <time>2021-02-05T11:59:00Z</time>
      </trkpt>
      <trkpt lat="44.68737" lon="6.94647">
        <ele>2989</ele>
        <time>2021-02-05T12:00:43Z</time>
      </trkpt>
      <trkpt lat="44.68735" lon="6.94637">
        <ele>2990</ele>
        <time>2021-02-05T12:06:19Z</time>
      </trkpt>
      <trkpt lat="44.68732" lon="6.94612">
        <ele>2988</ele>
        <time>2021-02-05T12:06:25Z</time>
      </trkpt>
      <trkpt lat="44.68735" lon="6.94602">
        <ele>2985</ele>
        <time>2021-02-05T12:06:28Z</time>
      </trkpt>
      <trkpt lat="44.68734" lon="6.94586">
        <ele>2982</ele>
        <time>2021-02-05T12:06:36Z</time>
      </trkpt>
      <trkpt lat="44.68732" lon="6.94573">
        <ele>2980</ele>
        <time>2021-02-05T12:06:38Z</time>
      </trkpt>
      <trkpt lat="44.68729" lon="6.9456">
        <ele>2978</ele>
        <time>2021-02-05T12:06:41Z</time>
      </trkpt>
      <trkpt lat="44.68728" lon="6.94548">
        <ele>2976</ele>
        <time>2021-02-05T12:06:43Z</time>
      </trkpt>
      <trkpt lat="44.68723" lon="6.94526">
        <ele>2973</ele>
        <time>2021-02-05T12:06:47Z</time>
      </trkpt>
      <trkpt lat="44.6872" lon="6.94515">
        <ele>2971</ele>
        <time>2021-02-05T12:06:50Z</time>
      </trkpt>
      <trkpt lat="44.6872" lon="6.94502">
        <ele>2969</ele>
        <time>2021-02-05T12:06:52Z</time>
      </trkpt>
      <trkpt lat="44.68718" lon="6.94489">
        <ele>2967</ele>
        <time>2021-02-05T12:06:54Z</time>
      </trkpt>
      <trkpt lat="44.6872" lon="6.94478">
        <ele>2965</ele>
        <time>2021-02-05T12:06:58Z</time>
      </trkpt>
      <trkpt lat="44.68723" lon="6.94467">
        <ele>2963</ele>
        <time>2021-02-05T12:07:02Z</time>
      </trkpt>
      <trkpt lat="44.68724" lon="6.94454">
        <ele>2960</ele>
        <time>2021-02-05T12:07:07Z</time>
      </trkpt>
      <trkpt lat="44.68725" lon="6.94441">
        <ele>2958</ele>
        <time>2021-02-05T12:07:09Z</time>
      </trkpt>
      <trkpt lat="44.68732" lon="6.94433">
        <ele>2954</ele>
        <time>2021-02-05T12:07:12Z</time>
      </trkpt>
      <trkpt lat="44.68732" lon="6.94422">
        <ele>2950</ele>
        <time>2021-02-05T12:07:22Z</time>
      </trkpt>
      <trkpt lat="44.6873" lon="6.94411">
        <ele>2949</ele>
        <time>2021-02-05T12:07:25Z</time>
      </trkpt>
      <trkpt lat="44.68738" lon="6.94408">
        <ele>2946</ele>
        <time>2021-02-05T12:07:41Z</time>
      </trkpt>
      <trkpt lat="44.68746" lon="6.9441">
        <ele>2943</ele>
        <time>2021-02-05T12:07:46Z</time>
      </trkpt>
      <trkpt lat="44.68757" lon="6.94413">
        <ele>2939</ele>
        <time>2021-02-05T12:07:50Z</time>
      </trkpt>
      <trkpt lat="44.68764" lon="6.94402">
        <ele>2935</ele>
        <time>2021-02-05T12:07:52Z</time>
      </trkpt>
      <trkpt lat="44.68761" lon="6.94384">
        <ele>2931</ele>
        <time>2021-02-05T12:07:54Z</time>
      </trkpt>
      <trkpt lat="44.6877" lon="6.94383">
        <ele>2928</ele>
        <time>2021-02-05T12:07:56Z</time>
      </trkpt>
      <trkpt lat="44.68775" lon="6.94373">
        <ele>2923</ele>
        <time>2021-02-05T12:07:59Z</time>
      </trkpt>
      <trkpt lat="44.6877" lon="6.94358">
        <ele>2918</ele>
        <time>2021-02-05T12:08:42Z</time>
      </trkpt>
      <trkpt lat="44.68766" lon="6.94348">
        <ele>2916</ele>
        <time>2021-02-05T12:08:45Z</time>
      </trkpt>
      <trkpt lat="44.68762" lon="6.94333">
        <ele>2913</ele>
        <time>2021-02-05T12:08:48Z</time>
      </trkpt>
      <trkpt lat="44.68759" lon="6.94321">
        <ele>2911</ele>
        <time>2021-02-05T12:08:50Z</time>
      </trkpt>
      <trkpt lat="44.68756" lon="6.94309">
        <ele>2909</ele>
        <time>2021-02-05T12:08:52Z</time>
      </trkpt>
      <trkpt lat="44.68752" lon="6.94294">
        <ele>2907</ele>
        <time>2021-02-05T12:08:54Z</time>
      </trkpt>
      <trkpt lat="44.68749" lon="6.9428">
        <ele>2905</ele>
        <time>2021-02-05T12:08:56Z</time>
      </trkpt>
      <trkpt lat="44.68747" lon="6.94266">
        <ele>2903</ele>
        <time>2021-02-05T12:08:58Z</time>
      </trkpt>
      <trkpt lat="44.68746" lon="6.9425">
        <ele>2901</ele>
        <time>2021-02-05T12:09:00Z</time>
      </trkpt>
      <trkpt lat="44.68756" lon="6.94241">
        <ele>2897</ele>
        <time>2021-02-05T12:09:02Z</time>
      </trkpt>
      <trkpt lat="44.68757" lon="6.9423">
        <ele>2895</ele>
        <time>2021-02-05T12:09:03Z</time>
      </trkpt>
      <trkpt lat="44.68755" lon="6.9422">
        <ele>2893</ele>
        <time>2021-02-05T12:09:04Z</time>
      </trkpt>
      <trkpt lat="44.68758" lon="6.94204">
        <ele>2891</ele>
        <time>2021-02-05T12:09:06Z</time>
      </trkpt>
      <trkpt lat="44.68759" lon="6.94187">
        <ele>2887</ele>
        <time>2021-02-05T12:09:08Z</time>
      </trkpt>
      <trkpt lat="44.68755" lon="6.94171">
        <ele>2883</ele>
        <time>2021-02-05T12:09:10Z</time>
      </trkpt>
      <trkpt lat="44.68763" lon="6.94166">
        <ele>2880</ele>
        <time>2021-02-05T12:09:12Z</time>
      </trkpt>
      <trkpt lat="44.68772" lon="6.94158">
        <ele>2876</ele>
        <time>2021-02-05T12:09:14Z</time>
      </trkpt>
      <trkpt lat="44.68771" lon="6.94147">
        <ele>2874</ele>
        <time>2021-02-05T12:09:15Z</time>
      </trkpt>
      <trkpt lat="44.68768" lon="6.94138">
        <ele>2872</ele>
        <time>2021-02-05T12:09:16Z</time>
      </trkpt>
      <trkpt lat="44.68764" lon="6.94128">
        <ele>2870</ele>
        <time>2021-02-05T12:09:17Z</time>
      </trkpt>
      <trkpt lat="44.68763" lon="6.94113">
        <ele>2866</ele>
        <time>2021-02-05T12:09:19Z</time>
      </trkpt>
      <trkpt lat="44.68773" lon="6.94113">
        <ele>2862</ele>
        <time>2021-02-05T12:09:20Z</time>
      </trkpt>
      <trkpt lat="44.6878" lon="6.94096">
        <ele>2855</ele>
        <time>2021-02-05T12:09:22Z</time>
      </trkpt>
      <trkpt lat="44.68777" lon="6.94085">
        <ele>2853</ele>
        <time>2021-02-05T12:09:23Z</time>
      </trkpt>
      <trkpt lat="44.68775" lon="6.94074">
        <ele>2850</ele>
        <time>2021-02-05T12:09:24Z</time>
      </trkpt>
      <trkpt lat="44.68774" lon="6.94063">
        <ele>2847</ele>
        <time>2021-02-05T12:09:25Z</time>
      </trkpt>
      <trkpt lat="44.6878" lon="6.94055">
        <ele>2844</ele>
        <time>2021-02-05T12:09:26Z</time>
      </trkpt>
      <trkpt lat="44.68788" lon="6.94052">
        <ele>2841</ele>
        <time>2021-02-05T12:09:27Z</time>
      </trkpt>
      <trkpt lat="44.68795" lon="6.94045">
        <ele>2838</ele>
        <time>2021-02-05T12:09:28Z</time>
      </trkpt>
      <trkpt lat="44.68798" lon="6.94035">
        <ele>2835</ele>
        <time>2021-02-05T12:09:29Z</time>
      </trkpt>
      <trkpt lat="44.68795" lon="6.94023">
        <ele>2831</ele>
        <time>2021-02-05T12:09:30Z</time>
      </trkpt>
      <trkpt lat="44.6879" lon="6.94012">
        <ele>2829</ele>
        <time>2021-02-05T12:09:31Z</time>
      </trkpt>
      <trkpt lat="44.68785" lon="6.94001">
        <ele>2827</ele>
        <time>2021-02-05T12:09:32Z</time>
      </trkpt>
      <trkpt lat="44.68783" lon="6.93989">
        <ele>2824</ele>
        <time>2021-02-05T12:09:33Z</time>
      </trkpt>
      <trkpt lat="44.68787" lon="6.9398">
        <ele>2822</ele>
        <time>2021-02-05T12:09:34Z</time>
      </trkpt>
      <trkpt lat="44.68791" lon="6.93969">
        <ele>2818</ele>
        <time>2021-02-05T12:09:35Z</time>
      </trkpt>
      <trkpt lat="44.6879" lon="6.93956">
        <ele>2815</ele>
        <time>2021-02-05T12:09:36Z</time>
      </trkpt>
      <trkpt lat="44.68785" lon="6.93944">
        <ele>2813</ele>
        <time>2021-02-05T12:09:37Z</time>
      </trkpt>
      <trkpt lat="44.6878" lon="6.93933">
        <ele>2811</ele>
        <time>2021-02-05T12:09:38Z</time>
      </trkpt>
      <trkpt lat="44.68781" lon="6.93922">
        <ele>2809</ele>
        <time>2021-02-05T12:09:39Z</time>
      </trkpt>
      <trkpt lat="44.68783" lon="6.9391">
        <ele>2806</ele>
        <time>2021-02-05T12:09:40Z</time>
      </trkpt>
      <trkpt lat="44.68783" lon="6.93896">
        <ele>2803</ele>
        <time>2021-02-05T12:09:41Z</time>
      </trkpt>
      <trkpt lat="44.68781" lon="6.93882">
        <ele>2800</ele>
        <time>2021-02-05T12:09:42Z</time>
      </trkpt>
      <trkpt lat="44.68781" lon="6.93869">
        <ele>2798</ele>
        <time>2021-02-05T12:09:43Z</time>
      </trkpt>
      <trkpt lat="44.68784" lon="6.93857">
        <ele>2795</ele>
        <time>2021-02-05T12:09:44Z</time>
      </trkpt>
      <trkpt lat="44.68787" lon="6.93845">
        <ele>2793</ele>
        <time>2021-02-05T12:09:45Z</time>
      </trkpt>
      <trkpt lat="44.68789" lon="6.93833">
        <ele>2791</ele>
        <time>2021-02-05T12:09:46Z</time>
      </trkpt>
      <trkpt lat="44.68802" lon="6.93819">
        <ele>2788</ele>
        <time>2021-02-05T12:09:48Z</time>
      </trkpt>
      <trkpt lat="44.68805" lon="6.93808">
        <ele>2786</ele>
        <time>2021-02-05T12:09:49Z</time>
      </trkpt>
      <trkpt lat="44.68807" lon="6.93797">
        <ele>2785</ele>
        <time>2021-02-05T12:09:50Z</time>
      </trkpt>
      <trkpt lat="44.68817" lon="6.93783">
        <ele>2781</ele>
        <time>2021-02-05T12:09:52Z</time>
      </trkpt>
      <trkpt lat="44.6882" lon="6.93774">
        <ele>2780</ele>
        <time>2021-02-05T12:09:53Z</time>
      </trkpt>
      <trkpt lat="44.68819" lon="6.93763">
        <ele>2779</ele>
        <time>2021-02-05T12:09:54Z</time>
      </trkpt>
      <trkpt lat="44.68814" lon="6.93709">
        <ele>2775</ele>
        <time>2021-02-05T12:11:25Z</time>
      </trkpt>
      <trkpt lat="44.68813" lon="6.93697">
        <ele>2775</ele>
        <time>2021-02-05T12:11:29Z</time>
      </trkpt>
      <trkpt lat="44.6882" lon="6.93688">
        <ele>2770</ele>
        <time>2021-02-05T12:11:32Z</time>
      </trkpt>
      <trkpt lat="44.68825" lon="6.93677">
        <ele>2765</ele>
        <time>2021-02-05T12:11:34Z</time>
      </trkpt>
      <trkpt lat="44.68832" lon="6.93668">
        <ele>2763</ele>
        <time>2021-02-05T12:11:36Z</time>
      </trkpt>
      <trkpt lat="44.68842" lon="6.93673">
        <ele>2759</ele>
        <time>2021-02-05T12:11:38Z</time>
      </trkpt>
      <trkpt lat="44.68848" lon="6.93657">
        <ele>2754</ele>
        <time>2021-02-05T12:11:40Z</time>
      </trkpt>
      <trkpt lat="44.6885" lon="6.93646">
        <ele>2751</ele>
        <time>2021-02-05T12:11:41Z</time>
      </trkpt>
      <trkpt lat="44.68851" lon="6.93636">
        <ele>2749</ele>
        <time>2021-02-05T12:11:42Z</time>
      </trkpt>
      <trkpt lat="44.6886" lon="6.93632">
        <ele>2745</ele>
        <time>2021-02-05T12:11:44Z</time>
      </trkpt>
      <trkpt lat="44.68869" lon="6.93642">
        <ele>2739</ele>
        <time>2021-02-05T12:11:46Z</time>
      </trkpt>
      <trkpt lat="44.68879" lon="6.93631">
        <ele>2734</ele>
        <time>2021-02-05T12:11:48Z</time>
      </trkpt>
      <trkpt lat="44.68885" lon="6.93617">
        <ele>2731</ele>
        <time>2021-02-05T12:11:50Z</time>
      </trkpt>
      <trkpt lat="44.68894" lon="6.93619">
        <ele>2726</ele>
        <time>2021-02-05T12:11:52Z</time>
      </trkpt>
      <trkpt lat="44.68905" lon="6.93612">
        <ele>2722</ele>
        <time>2021-02-05T12:11:54Z</time>
      </trkpt>
      <trkpt lat="44.68914" lon="6.93612">
        <ele>2719</ele>
        <time>2021-02-05T12:11:56Z</time>
      </trkpt>
      <trkpt lat="44.68911" lon="6.93624">
        <ele>2713</ele>
        <time>2021-02-05T12:12:15Z</time>
      </trkpt>
      <trkpt lat="44.68917" lon="6.93651">
        <ele>2712</ele>
        <time>2021-02-05T12:12:20Z</time>
      </trkpt>
      <trkpt lat="44.68923" lon="6.93661">
        <ele>2710</ele>
        <time>2021-02-05T12:12:22Z</time>
      </trkpt>
      <trkpt lat="44.6893" lon="6.9367">
        <ele>2708</ele>
        <time>2021-02-05T12:12:24Z</time>
      </trkpt>
      <trkpt lat="44.6894" lon="6.93676">
        <ele>2706</ele>
        <time>2021-02-05T12:12:26Z</time>
      </trkpt>
      <trkpt lat="44.68949" lon="6.93678">
        <ele>2702</ele>
        <time>2021-02-05T12:12:28Z</time>
      </trkpt>
      <trkpt lat="44.68959" lon="6.93671">
        <ele>2699</ele>
        <time>2021-02-05T12:12:30Z</time>
      </trkpt>
      <trkpt lat="44.68967" lon="6.93675">
        <ele>2695</ele>
        <time>2021-02-05T12:12:32Z</time>
      </trkpt>
      <trkpt lat="44.68975" lon="6.93687">
        <ele>2684</ele>
        <time>2021-02-05T12:12:54Z</time>
      </trkpt>
      <trkpt lat="44.68985" lon="6.93686">
        <ele>2682</ele>
        <time>2021-02-05T12:12:56Z</time>
      </trkpt>
      <trkpt lat="44.68995" lon="6.93687">
        <ele>2680</ele>
        <time>2021-02-05T12:12:58Z</time>
      </trkpt>
      <trkpt lat="44.69006" lon="6.9369">
        <ele>2678</ele>
        <time>2021-02-05T12:13:00Z</time>
      </trkpt>
      <trkpt lat="44.69019" lon="6.93698">
        <ele>2675</ele>
        <time>2021-02-05T12:13:02Z</time>
      </trkpt>
      <trkpt lat="44.69025" lon="6.93704">
        <ele>2674</ele>
        <time>2021-02-05T12:13:03Z</time>
      </trkpt>
      <trkpt lat="44.69037" lon="6.93706">
        <ele>2671</ele>
        <time>2021-02-05T12:13:05Z</time>
      </trkpt>
      <trkpt lat="44.69042" lon="6.93696">
        <ele>2668</ele>
        <time>2021-02-05T12:13:07Z</time>
      </trkpt>
      <trkpt lat="44.69046" lon="6.93679">
        <ele>2664</ele>
        <time>2021-02-05T12:13:09Z</time>
      </trkpt>
      <trkpt lat="44.6905" lon="6.93662">
        <ele>2660</ele>
        <time>2021-02-05T12:13:11Z</time>
      </trkpt>
      <trkpt lat="44.69056" lon="6.93649">
        <ele>2655</ele>
        <time>2021-02-05T12:13:13Z</time>
      </trkpt>
      <trkpt lat="44.69062" lon="6.9364">
        <ele>2650</ele>
        <time>2021-02-05T12:13:15Z</time>
      </trkpt>
      <trkpt lat="44.69089" lon="6.93623">
        <ele>2643</ele>
        <time>2021-02-05T12:13:19Z</time>
      </trkpt>
      <trkpt lat="44.69097" lon="6.93617">
        <ele>2641</ele>
        <time>2021-02-05T12:13:20Z</time>
      </trkpt>
      <trkpt lat="44.69106" lon="6.93607">
        <ele>2639</ele>
        <time>2021-02-05T12:13:22Z</time>
      </trkpt>
      <trkpt lat="44.69107" lon="6.93588">
        <ele>2636</ele>
        <time>2021-02-05T12:13:24Z</time>
      </trkpt>
      <trkpt lat="44.69108" lon="6.93578">
        <ele>2634</ele>
        <time>2021-02-05T12:13:25Z</time>
      </trkpt>
      <trkpt lat="44.69117" lon="6.93553">
        <ele>2632</ele>
        <time>2021-02-05T12:13:28Z</time>
      </trkpt>
      <trkpt lat="44.69127" lon="6.93533">
        <ele>2630</ele>
        <time>2021-02-05T12:13:32Z</time>
      </trkpt>
      <trkpt lat="44.69132" lon="6.9351">
        <ele>2627</ele>
        <time>2021-02-05T12:13:36Z</time>
      </trkpt>
      <trkpt lat="44.69132" lon="6.935">
        <ele>2627</ele>
        <time>2021-02-05T12:13:39Z</time>
      </trkpt>
      <trkpt lat="44.69137" lon="6.93489">
        <ele>2628</ele>
        <time>2021-02-05T12:15:17Z</time>
      </trkpt>
      <trkpt lat="44.69147" lon="6.93467">
        <ele>2626</ele>
        <time>2021-02-05T12:15:21Z</time>
      </trkpt>
      <trkpt lat="44.69158" lon="6.93473">
        <ele>2624</ele>
        <time>2021-02-05T12:15:23Z</time>
      </trkpt>
      <trkpt lat="44.69169" lon="6.93464">
        <ele>2620</ele>
        <time>2021-02-05T12:15:25Z</time>
      </trkpt>
      <trkpt lat="44.69173" lon="6.93455">
        <ele>2617</ele>
        <time>2021-02-05T12:15:26Z</time>
      </trkpt>
      <trkpt lat="44.6918" lon="6.93439">
        <ele>2613</ele>
        <time>2021-02-05T12:15:28Z</time>
      </trkpt>
      <trkpt lat="44.69185" lon="6.93431">
        <ele>2610</ele>
        <time>2021-02-05T12:15:29Z</time>
      </trkpt>
      <trkpt lat="44.6919" lon="6.93422">
        <ele>2608</ele>
        <time>2021-02-05T12:15:30Z</time>
      </trkpt>
      <trkpt lat="44.69192" lon="6.93412">
        <ele>2606</ele>
        <time>2021-02-05T12:15:31Z</time>
      </trkpt>
      <trkpt lat="44.69194" lon="6.93394">
        <ele>2604</ele>
        <time>2021-02-05T12:15:33Z</time>
      </trkpt>
      <trkpt lat="44.69201" lon="6.93383">
        <ele>2602</ele>
        <time>2021-02-05T12:15:35Z</time>
      </trkpt>
      <trkpt lat="44.69208" lon="6.93386">
        <ele>2600</ele>
        <time>2021-02-05T12:15:36Z</time>
      </trkpt>
      <trkpt lat="44.6922" lon="6.93378">
        <ele>2595</ele>
        <time>2021-02-05T12:15:38Z</time>
      </trkpt>
      <trkpt lat="44.69227" lon="6.93364">
        <ele>2590</ele>
        <time>2021-02-05T12:15:40Z</time>
      </trkpt>
      <trkpt lat="44.69238" lon="6.93367">
        <ele>2586</ele>
        <time>2021-02-05T12:15:42Z</time>
      </trkpt>
      <trkpt lat="44.69242" lon="6.93354">
        <ele>2581</ele>
        <time>2021-02-05T12:15:44Z</time>
      </trkpt>
      <trkpt lat="44.69242" lon="6.93339">
        <ele>2578</ele>
        <time>2021-02-05T12:15:46Z</time>
      </trkpt>
      <trkpt lat="44.69252" lon="6.93335">
        <ele>2573</ele>
        <time>2021-02-05T12:15:48Z</time>
      </trkpt>
      <trkpt lat="44.69259" lon="6.93319">
        <ele>2569</ele>
        <time>2021-02-05T12:15:50Z</time>
      </trkpt>
      <trkpt lat="44.69265" lon="6.93312">
        <ele>2568</ele>
        <time>2021-02-05T12:15:51Z</time>
      </trkpt>
      <trkpt lat="44.69272" lon="6.93305">
        <ele>2566</ele>
        <time>2021-02-05T12:15:52Z</time>
      </trkpt>
      <trkpt lat="44.69279" lon="6.93295">
        <ele>2565</ele>
        <time>2021-02-05T12:15:53Z</time>
      </trkpt>
      <trkpt lat="44.6929" lon="6.93274">
        <ele>2563</ele>
        <time>2021-02-05T12:15:55Z</time>
      </trkpt>
      <trkpt lat="44.69297" lon="6.93271">
        <ele>2561</ele>
        <time>2021-02-05T12:15:56Z</time>
      </trkpt>
      <trkpt lat="44.69304" lon="6.93271">
        <ele>2560</ele>
        <time>2021-02-05T12:15:57Z</time>
      </trkpt>
      <trkpt lat="44.69311" lon="6.93267">
        <ele>2559</ele>
        <time>2021-02-05T12:15:58Z</time>
      </trkpt>
      <trkpt lat="44.69323" lon="6.93264">
        <ele>2556</ele>
        <time>2021-02-05T12:16:00Z</time>
      </trkpt>
      <trkpt lat="44.69334" lon="6.93261">
        <ele>2553</ele>
        <time>2021-02-05T12:16:02Z</time>
      </trkpt>
      <trkpt lat="44.69354" lon="6.93244">
        <ele>2547</ele>
        <time>2021-02-05T12:16:05Z</time>
      </trkpt>
      <trkpt lat="44.69369" lon="6.93227">
        <ele>2543</ele>
        <time>2021-02-05T12:16:10Z</time>
      </trkpt>
      <trkpt lat="44.69366" lon="6.93239">
        <ele>2539</ele>
        <time>2021-02-05T12:54:05Z</time>
      </trkpt>
      <trkpt lat="44.69375" lon="6.93244">
        <ele>2538</ele>
        <time>2021-02-05T12:54:08Z</time>
      </trkpt>
      <trkpt lat="44.69381" lon="6.93238">
        <ele>2537</ele>
        <time>2021-02-05T12:54:10Z</time>
      </trkpt>
      <trkpt lat="44.6939" lon="6.93231">
        <ele>2535</ele>
        <time>2021-02-05T12:54:13Z</time>
      </trkpt>
      <trkpt lat="44.69396" lon="6.93225">
        <ele>2533</ele>
        <time>2021-02-05T12:54:17Z</time>
      </trkpt>
      <trkpt lat="44.694" lon="6.93234">
        <ele>2531</ele>
        <time>2021-02-05T12:54:20Z</time>
      </trkpt>
      <trkpt lat="44.69395" lon="6.93244">
        <ele>2530</ele>
        <time>2021-02-05T12:54:22Z</time>
      </trkpt>
      <trkpt lat="44.69391" lon="6.93254">
        <ele>2528</ele>
        <time>2021-02-05T12:54:25Z</time>
      </trkpt>
      <trkpt lat="44.69392" lon="6.93264">
        <ele>2527</ele>
        <time>2021-02-05T12:54:27Z</time>
      </trkpt>
      <trkpt lat="44.69399" lon="6.93263">
        <ele>2525</ele>
        <time>2021-02-05T12:54:29Z</time>
      </trkpt>
      <trkpt lat="44.69409" lon="6.93256">
        <ele>2523</ele>
        <time>2021-02-05T12:54:31Z</time>
      </trkpt>
      <trkpt lat="44.69419" lon="6.9325">
        <ele>2521</ele>
        <time>2021-02-05T12:54:33Z</time>
      </trkpt>
      <trkpt lat="44.69442" lon="6.93236">
        <ele>2518</ele>
        <time>2021-02-05T12:54:37Z</time>
      </trkpt>
      <trkpt lat="44.69454" lon="6.93236">
        <ele>2514</ele>
        <time>2021-02-05T12:54:39Z</time>
      </trkpt>
      <trkpt lat="44.69467" lon="6.93233">
        <ele>2511</ele>
        <time>2021-02-05T12:54:41Z</time>
      </trkpt>
      <trkpt lat="44.69479" lon="6.93228">
        <ele>2509</ele>
        <time>2021-02-05T12:54:43Z</time>
      </trkpt>
      <trkpt lat="44.6949" lon="6.93223">
        <ele>2507</ele>
        <time>2021-02-05T12:54:45Z</time>
      </trkpt>
      <trkpt lat="44.6951" lon="6.93213">
        <ele>2503</ele>
        <time>2021-02-05T12:54:48Z</time>
      </trkpt>
      <trkpt lat="44.69518" lon="6.93213">
        <ele>2502</ele>
        <time>2021-02-05T12:54:49Z</time>
      </trkpt>
      <trkpt lat="44.69527" lon="6.93216">
        <ele>2501</ele>
        <time>2021-02-05T12:54:50Z</time>
      </trkpt>
      <trkpt lat="44.69534" lon="6.93221">
        <ele>2499</ele>
        <time>2021-02-05T12:54:51Z</time>
      </trkpt>
      <trkpt lat="44.69542" lon="6.93221">
        <ele>2498</ele>
        <time>2021-02-05T12:54:52Z</time>
      </trkpt>
      <trkpt lat="44.69548" lon="6.93216">
        <ele>2496</ele>
        <time>2021-02-05T12:54:53Z</time>
      </trkpt>
      <trkpt lat="44.69553" lon="6.93207">
        <ele>2495</ele>
        <time>2021-02-05T12:54:54Z</time>
      </trkpt>
      <trkpt lat="44.69565" lon="6.93198">
        <ele>2491</ele>
        <time>2021-02-05T12:54:56Z</time>
      </trkpt>
      <trkpt lat="44.69571" lon="6.93192">
        <ele>2489</ele>
        <time>2021-02-05T12:54:57Z</time>
      </trkpt>
      <trkpt lat="44.69576" lon="6.93184">
        <ele>2487</ele>
        <time>2021-02-05T12:54:58Z</time>
      </trkpt>
      <trkpt lat="44.69583" lon="6.93178">
        <ele>2486</ele>
        <time>2021-02-05T12:54:59Z</time>
      </trkpt>
      <trkpt lat="44.69592" lon="6.93174">
        <ele>2483</ele>
        <time>2021-02-05T12:55:00Z</time>
      </trkpt>
      <trkpt lat="44.69602" lon="6.93169">
        <ele>2481</ele>
        <time>2021-02-05T12:55:01Z</time>
      </trkpt>
      <trkpt lat="44.6961" lon="6.9316">
        <ele>2478</ele>
        <time>2021-02-05T12:55:02Z</time>
      </trkpt>
      <trkpt lat="44.69615" lon="6.93149">
        <ele>2477</ele>
        <time>2021-02-05T12:55:03Z</time>
      </trkpt>
      <trkpt lat="44.69619" lon="6.93138">
        <ele>2475</ele>
        <time>2021-02-05T12:55:04Z</time>
      </trkpt>
      <trkpt lat="44.69624" lon="6.9313">
        <ele>2474</ele>
        <time>2021-02-05T12:55:05Z</time>
      </trkpt>
      <trkpt lat="44.69631" lon="6.93129">
        <ele>2473</ele>
        <time>2021-02-05T12:55:06Z</time>
      </trkpt>
      <trkpt lat="44.69638" lon="6.93129">
        <ele>2471</ele>
        <time>2021-02-05T12:55:07Z</time>
      </trkpt>
      <trkpt lat="44.69652" lon="6.93121">
        <ele>2468</ele>
        <time>2021-02-05T12:55:09Z</time>
      </trkpt>
      <trkpt lat="44.69663" lon="6.93127">
        <ele>2465</ele>
        <time>2021-02-05T12:55:11Z</time>
      </trkpt>
      <trkpt lat="44.69667" lon="6.93136">
        <ele>2462</ele>
        <time>2021-02-05T12:55:14Z</time>
      </trkpt>
      <trkpt lat="44.69663" lon="6.93152">
        <ele>2464</ele>
        <time>2021-02-05T12:55:51Z</time>
      </trkpt>
      <trkpt lat="44.69667" lon="6.9316">
        <ele>2465</ele>
        <time>2021-02-05T12:55:52Z</time>
      </trkpt>
      <trkpt lat="44.69656" lon="6.93178">
        <ele>2534</ele>
        <time>2021-02-05T12:55:59Z</time>
      </trkpt>
      <trkpt lat="44.69649" lon="6.93174">
        <ele>2540</ele>
        <time>2021-02-05T12:56:03Z</time>
      </trkpt>
      <trkpt lat="44.69658" lon="6.9316">
        <ele>2527</ele>
        <time>2021-02-05T12:56:11Z</time>
      </trkpt>
      <trkpt lat="44.69663" lon="6.93126">
        <ele>2508</ele>
        <time>2021-02-05T12:56:15Z</time>
      </trkpt>
      <trkpt lat="44.69669" lon="6.93112">
        <ele>2495</ele>
        <time>2021-02-05T12:56:17Z</time>
      </trkpt>
      <trkpt lat="44.69681" lon="6.93107">
        <ele>2483</ele>
        <time>2021-02-05T12:56:19Z</time>
      </trkpt>
      <trkpt lat="44.69689" lon="6.93096">
        <ele>2473</ele>
        <time>2021-02-05T12:56:21Z</time>
      </trkpt>
      <trkpt lat="44.6972" lon="6.93078">
        <ele>2450</ele>
        <time>2021-02-05T12:56:27Z</time>
      </trkpt>
      <trkpt lat="44.6973" lon="6.9307">
        <ele>2446</ele>
        <time>2021-02-05T12:56:29Z</time>
      </trkpt>
      <trkpt lat="44.69739" lon="6.93061">
        <ele>2442</ele>
        <time>2021-02-05T12:56:31Z</time>
      </trkpt>
      <trkpt lat="44.6975" lon="6.93054">
        <ele>2440</ele>
        <time>2021-02-05T12:56:33Z</time>
      </trkpt>
      <trkpt lat="44.6976" lon="6.93048">
        <ele>2438</ele>
        <time>2021-02-05T12:56:35Z</time>
      </trkpt>
      <trkpt lat="44.69768" lon="6.93046">
        <ele>2437</ele>
        <time>2021-02-05T12:56:38Z</time>
      </trkpt>
      <trkpt lat="44.69798" lon="6.93046">
        <ele>2434</ele>
        <time>2021-02-05T12:56:44Z</time>
      </trkpt>
      <trkpt lat="44.69806" lon="6.93042">
        <ele>2433</ele>
        <time>2021-02-05T12:56:46Z</time>
      </trkpt>
      <trkpt lat="44.69814" lon="6.93039">
        <ele>2431</ele>
        <time>2021-02-05T12:56:48Z</time>
      </trkpt>
      <trkpt lat="44.69822" lon="6.93039">
        <ele>2429</ele>
        <time>2021-02-05T12:56:50Z</time>
      </trkpt>
      <trkpt lat="44.69831" lon="6.93043">
        <ele>2427</ele>
        <time>2021-02-05T12:56:52Z</time>
      </trkpt>
      <trkpt lat="44.69854" lon="6.93036">
        <ele>2425</ele>
        <time>2021-02-05T12:57:06Z</time>
      </trkpt>
      <trkpt lat="44.69864" lon="6.93031">
        <ele>2425</ele>
        <time>2021-02-05T12:57:08Z</time>
      </trkpt>
      <trkpt lat="44.69875" lon="6.93024">
        <ele>2423</ele>
        <time>2021-02-05T12:57:10Z</time>
      </trkpt>
      <trkpt lat="44.69886" lon="6.93016">
        <ele>2420</ele>
        <time>2021-02-05T12:57:12Z</time>
      </trkpt>
      <trkpt lat="44.69896" lon="6.93013">
        <ele>2419</ele>
        <time>2021-02-05T12:57:14Z</time>
      </trkpt>
      <trkpt lat="44.69906" lon="6.93005">
        <ele>2417</ele>
        <time>2021-02-05T12:57:16Z</time>
      </trkpt>
      <trkpt lat="44.69917" lon="6.93012">
        <ele>2414</ele>
        <time>2021-02-05T12:57:18Z</time>
      </trkpt>
      <trkpt lat="44.69928" lon="6.93002">
        <ele>2411</ele>
        <time>2021-02-05T12:57:20Z</time>
      </trkpt>
      <trkpt lat="44.69939" lon="6.93006">
        <ele>2406</ele>
        <time>2021-02-05T12:57:22Z</time>
      </trkpt>
      <trkpt lat="44.69944" lon="6.93">
        <ele>2402</ele>
        <time>2021-02-05T12:57:23Z</time>
      </trkpt>
      <trkpt lat="44.6995" lon="6.92984">
        <ele>2398</ele>
        <time>2021-02-05T12:57:25Z</time>
      </trkpt>
      <trkpt lat="44.69955" lon="6.92982">
        <ele>2392</ele>
        <time>2021-02-05T12:57:36Z</time>
      </trkpt>
      <trkpt lat="44.6996" lon="6.92992">
        <ele>2389</ele>
        <time>2021-02-05T12:57:38Z</time>
      </trkpt>
      <trkpt lat="44.69963" lon="6.93008">
        <ele>2387</ele>
        <time>2021-02-05T12:57:40Z</time>
      </trkpt>
      <trkpt lat="44.69967" lon="6.93028">
        <ele>2385</ele>
        <time>2021-02-05T12:57:42Z</time>
      </trkpt>
      <trkpt lat="44.69973" lon="6.93043">
        <ele>2382</ele>
        <time>2021-02-05T12:57:44Z</time>
      </trkpt>
      <trkpt lat="44.69983" lon="6.93033">
        <ele>2378</ele>
        <time>2021-02-05T12:57:46Z</time>
      </trkpt>
      <trkpt lat="44.69994" lon="6.93024">
        <ele>2375</ele>
        <time>2021-02-05T12:57:48Z</time>
      </trkpt>
      <trkpt lat="44.70006" lon="6.93015">
        <ele>2372</ele>
        <time>2021-02-05T12:57:50Z</time>
      </trkpt>
      <trkpt lat="44.70014" lon="6.93017">
        <ele>2370</ele>
        <time>2021-02-05T12:57:51Z</time>
      </trkpt>
      <trkpt lat="44.70021" lon="6.93015">
        <ele>2368</ele>
        <time>2021-02-05T12:57:52Z</time>
      </trkpt>
      <trkpt lat="44.70029" lon="6.9301">
        <ele>2365</ele>
        <time>2021-02-05T12:57:53Z</time>
      </trkpt>
      <trkpt lat="44.70034" lon="6.93003">
        <ele>2363</ele>
        <time>2021-02-05T12:57:54Z</time>
      </trkpt>
      <trkpt lat="44.70044" lon="6.93">
        <ele>2360</ele>
        <time>2021-02-05T12:57:56Z</time>
      </trkpt>
      <trkpt lat="44.70052" lon="6.92995">
        <ele>2357</ele>
        <time>2021-02-05T12:57:58Z</time>
      </trkpt>
      <trkpt lat="44.7005" lon="6.92985">
        <ele>2354</ele>
        <time>2021-02-05T12:58:01Z</time>
      </trkpt>
      <trkpt lat="44.70059" lon="6.92989">
        <ele>2354</ele>
        <time>2021-02-05T12:59:22Z</time>
      </trkpt>
      <trkpt lat="44.70067" lon="6.92998">
        <ele>2352</ele>
        <time>2021-02-05T12:59:24Z</time>
      </trkpt>
      <trkpt lat="44.70074" lon="6.9301">
        <ele>2347</ele>
        <time>2021-02-05T12:59:34Z</time>
      </trkpt>
      <trkpt lat="44.70087" lon="6.93026">
        <ele>2344</ele>
        <time>2021-02-05T12:59:39Z</time>
      </trkpt>
      <trkpt lat="44.70088" lon="6.93014">
        <ele>2342</ele>
        <time>2021-02-05T13:00:00Z</time>
      </trkpt>
      <trkpt lat="44.70094" lon="6.93005">
        <ele>2341</ele>
        <time>2021-02-05T13:00:04Z</time>
      </trkpt>
      <trkpt lat="44.70101" lon="6.93">
        <ele>2338</ele>
        <time>2021-02-05T13:00:07Z</time>
      </trkpt>
      <trkpt lat="44.70106" lon="6.92988">
        <ele>2334</ele>
        <time>2021-02-05T13:00:10Z</time>
      </trkpt>
      <trkpt lat="44.70113" lon="6.92984">
        <ele>2331</ele>
        <time>2021-02-05T13:00:12Z</time>
      </trkpt>
      <trkpt lat="44.70117" lon="6.92971">
        <ele>2325</ele>
        <time>2021-02-05T13:00:16Z</time>
      </trkpt>
      <trkpt lat="44.70119" lon="6.92956">
        <ele>2323</ele>
        <time>2021-02-05T13:00:18Z</time>
      </trkpt>
      <trkpt lat="44.70124" lon="6.92945">
        <ele>2320</ele>
        <time>2021-02-05T13:00:20Z</time>
      </trkpt>
      <trkpt lat="44.70133" lon="6.9294">
        <ele>2318</ele>
        <time>2021-02-05T13:00:23Z</time>
      </trkpt>
      <trkpt lat="44.70134" lon="6.92953">
        <ele>2315</ele>
        <time>2021-02-05T13:00:26Z</time>
      </trkpt>
      <trkpt lat="44.70144" lon="6.92958">
        <ele>2311</ele>
        <time>2021-02-05T13:00:29Z</time>
      </trkpt>
      <trkpt lat="44.70151" lon="6.92953">
        <ele>2307</ele>
        <time>2021-02-05T13:00:33Z</time>
      </trkpt>
      <trkpt lat="44.70165" lon="6.92938">
        <ele>2303</ele>
        <time>2021-02-05T13:00:52Z</time>
      </trkpt>
      <trkpt lat="44.70172" lon="6.92928">
        <ele>2301</ele>
        <time>2021-02-05T13:00:55Z</time>
      </trkpt>
      <trkpt lat="44.70175" lon="6.92918">
        <ele>2299</ele>
        <time>2021-02-05T13:00:59Z</time>
      </trkpt>
      <trkpt lat="44.70179" lon="6.92908">
        <ele>2296</ele>
        <time>2021-02-05T13:01:02Z</time>
      </trkpt>
      <trkpt lat="44.70189" lon="6.9291">
        <ele>2293</ele>
        <time>2021-02-05T13:01:06Z</time>
      </trkpt>
      <trkpt lat="44.70197" lon="6.92917">
        <ele>2287</ele>
        <time>2021-02-05T13:01:09Z</time>
      </trkpt>
      <trkpt lat="44.70203" lon="6.92912">
        <ele>2283</ele>
        <time>2021-02-05T13:01:11Z</time>
      </trkpt>
      <trkpt lat="44.70228" lon="6.92922">
        <ele>2262</ele>
        <time>2021-02-05T13:01:28Z</time>
      </trkpt>
      <trkpt lat="44.70236" lon="6.92919">
        <ele>2259</ele>
        <time>2021-02-05T13:01:31Z</time>
      </trkpt>
      <trkpt lat="44.70244" lon="6.9291">
        <ele>2255</ele>
        <time>2021-02-05T13:01:34Z</time>
      </trkpt>
      <trkpt lat="44.7025" lon="6.92915">
        <ele>2251</ele>
        <time>2021-02-05T13:01:41Z</time>
      </trkpt>
      <trkpt lat="44.70257" lon="6.92919">
        <ele>2248</ele>
        <time>2021-02-05T13:01:47Z</time>
      </trkpt>
      <trkpt lat="44.70264" lon="6.92924">
        <ele>2244</ele>
        <time>2021-02-05T13:01:53Z</time>
      </trkpt>
      <trkpt lat="44.70272" lon="6.92926">
        <ele>2241</ele>
        <time>2021-02-05T13:01:56Z</time>
      </trkpt>
      <trkpt lat="44.7028" lon="6.92923">
        <ele>2235</ele>
        <time>2021-02-05T13:02:18Z</time>
      </trkpt>
      <trkpt lat="44.70281" lon="6.92912">
        <ele>2234</ele>
        <time>2021-02-05T13:02:23Z</time>
      </trkpt>
      <trkpt lat="44.70288" lon="6.92901">
        <ele>2233</ele>
        <time>2021-02-05T13:03:56Z</time>
      </trkpt>
      <trkpt lat="44.70296" lon="6.92899">
        <ele>2233</ele>
        <time>2021-02-05T13:04:00Z</time>
      </trkpt>
      <trkpt lat="44.70304" lon="6.92901">
        <ele>2232</ele>
        <time>2021-02-05T13:04:04Z</time>
      </trkpt>
      <trkpt lat="44.70317" lon="6.92898">
        <ele>2232</ele>
        <time>2021-02-05T13:04:29Z</time>
      </trkpt>
      <trkpt lat="44.70322" lon="6.92889">
        <ele>2231</ele>
        <time>2021-02-05T13:04:32Z</time>
      </trkpt>
      <trkpt lat="44.70327" lon="6.92882">
        <ele>2229</ele>
        <time>2021-02-05T13:04:41Z</time>
      </trkpt>
      <trkpt lat="44.70331" lon="6.92872">
        <ele>2228</ele>
        <time>2021-02-05T13:04:45Z</time>
      </trkpt>
      <trkpt lat="44.70334" lon="6.92883">
        <ele>2222</ele>
        <time>2021-02-05T13:04:51Z</time>
      </trkpt>
      <trkpt lat="44.70344" lon="6.92884">
        <ele>2215</ele>
        <time>2021-02-05T13:04:55Z</time>
      </trkpt>
      <trkpt lat="44.70348" lon="6.92876">
        <ele>2211</ele>
        <time>2021-02-05T13:04:58Z</time>
      </trkpt>
      <trkpt lat="44.70356" lon="6.92883">
        <ele>2209</ele>
        <time>2021-02-05T13:05:02Z</time>
      </trkpt>
      <trkpt lat="44.70363" lon="6.92887">
        <ele>2207</ele>
        <time>2021-02-05T13:05:05Z</time>
      </trkpt>
      <trkpt lat="44.70372" lon="6.92886">
        <ele>2203</ele>
        <time>2021-02-05T13:05:09Z</time>
      </trkpt>
      <trkpt lat="44.7038" lon="6.92878">
        <ele>2201</ele>
        <time>2021-02-05T13:05:11Z</time>
      </trkpt>
      <trkpt lat="44.7039" lon="6.92878">
        <ele>2199</ele>
        <time>2021-02-05T13:05:13Z</time>
      </trkpt>
      <trkpt lat="44.70395" lon="6.92871">
        <ele>2199</ele>
        <time>2021-02-05T13:05:15Z</time>
      </trkpt>
      <trkpt lat="44.704" lon="6.92878">
        <ele>2193</ele>
        <time>2021-02-05T13:05:19Z</time>
      </trkpt>
      <trkpt lat="44.70408" lon="6.92875">
        <ele>2186</ele>
        <time>2021-02-05T13:05:23Z</time>
      </trkpt>
      <trkpt lat="44.70413" lon="6.92884">
        <ele>2182</ele>
        <time>2021-02-05T13:05:32Z</time>
      </trkpt>
      <trkpt lat="44.70412" lon="6.92895">
        <ele>2179</ele>
        <time>2021-02-05T13:05:48Z</time>
      </trkpt>
      <trkpt lat="44.70413" lon="6.92906">
        <ele>2177</ele>
        <time>2021-02-05T13:05:51Z</time>
      </trkpt>
      <trkpt lat="44.70417" lon="6.92917">
        <ele>2175</ele>
        <time>2021-02-05T13:05:53Z</time>
      </trkpt>
      <trkpt lat="44.70421" lon="6.92926">
        <ele>2173</ele>
        <time>2021-02-05T13:05:55Z</time>
      </trkpt>
      <trkpt lat="44.70425" lon="6.92936">
        <ele>2171</ele>
        <time>2021-02-05T13:05:57Z</time>
      </trkpt>
      <trkpt lat="44.70431" lon="6.92945">
        <ele>2168</ele>
        <time>2021-02-05T13:05:59Z</time>
      </trkpt>
      <trkpt lat="44.70437" lon="6.92954">
        <ele>2166</ele>
        <time>2021-02-05T13:06:01Z</time>
      </trkpt>
      <trkpt lat="44.70451" lon="6.92974">
        <ele>2156</ele>
        <time>2021-02-05T13:06:06Z</time>
      </trkpt>
      <trkpt lat="44.70455" lon="6.92985">
        <ele>2152</ele>
        <time>2021-02-05T13:06:08Z</time>
      </trkpt>
      <trkpt lat="44.70453" lon="6.92996">
        <ele>2148</ele>
        <time>2021-02-05T13:06:10Z</time>
      </trkpt>
      <trkpt lat="44.70462" lon="6.93003">
        <ele>2144</ele>
        <time>2021-02-05T13:06:13Z</time>
      </trkpt>
      <trkpt lat="44.70472" lon="6.93013">
        <ele>2141</ele>
        <time>2021-02-05T13:06:15Z</time>
      </trkpt>
      <trkpt lat="44.70481" lon="6.93029">
        <ele>2139</ele>
        <time>2021-02-05T13:06:17Z</time>
      </trkpt>
      <trkpt lat="44.7049" lon="6.93043">
        <ele>2136</ele>
        <time>2021-02-05T13:06:19Z</time>
      </trkpt>
      <trkpt lat="44.70495" lon="6.93057">
        <ele>2133</ele>
        <time>2021-02-05T13:06:21Z</time>
      </trkpt>
      <trkpt lat="44.70503" lon="6.93066">
        <ele>2130</ele>
        <time>2021-02-05T13:06:23Z</time>
      </trkpt>
      <trkpt lat="44.70512" lon="6.93075">
        <ele>2127</ele>
        <time>2021-02-05T13:06:25Z</time>
      </trkpt>
      <trkpt lat="44.70523" lon="6.93078">
        <ele>2125</ele>
        <time>2021-02-05T13:06:27Z</time>
      </trkpt>
      <trkpt lat="44.70529" lon="6.93083">
        <ele>2122</ele>
        <time>2021-02-05T13:06:34Z</time>
      </trkpt>
      <trkpt lat="44.70541" lon="6.93083">
        <ele>2121</ele>
        <time>2021-02-05T13:07:03Z</time>
      </trkpt>
      <trkpt lat="44.70545" lon="6.93075">
        <ele>2123</ele>
        <time>2021-02-05T13:07:14Z</time>
      </trkpt>
      <trkpt lat="44.70559" lon="6.93055">
        <ele>2125</ele>
        <time>2021-02-05T13:07:41Z</time>
      </trkpt>
      <trkpt lat="44.70567" lon="6.93049">
        <ele>2127</ele>
        <time>2021-02-05T13:08:00Z</time>
      </trkpt>
      <trkpt lat="44.70572" lon="6.93042">
        <ele>2133</ele>
        <time>2021-02-05T13:08:50Z</time>
      </trkpt>
      <trkpt lat="44.70577" lon="6.93031">
        <ele>2131</ele>
        <time>2021-02-05T13:09:12Z</time>
      </trkpt>
      <trkpt lat="44.70583" lon="6.93023">
        <ele>2131</ele>
        <time>2021-02-05T13:10:17Z</time>
      </trkpt>
      <trkpt lat="44.70592" lon="6.93002">
        <ele>2132</ele>
        <time>2021-02-05T13:10:25Z</time>
      </trkpt>
      <trkpt lat="44.70649" lon="6.92922">
        <ele>2127</ele>
        <time>2021-02-05T13:10:45Z</time>
      </trkpt>
      <trkpt lat="44.70667" lon="6.92901">
        <ele>2124</ele>
        <time>2021-02-05T13:10:51Z</time>
      </trkpt>
      <trkpt lat="44.70672" lon="6.92892">
        <ele>2124</ele>
        <time>2021-02-05T13:10:53Z</time>
      </trkpt>
      <trkpt lat="44.70703" lon="6.92776">
        <ele>2125</ele>
        <time>2021-02-05T13:11:23Z</time>
      </trkpt>
      <trkpt lat="44.70713" lon="6.92739">
        <ele>2123</ele>
        <time>2021-02-05T13:11:31Z</time>
      </trkpt>
      <trkpt lat="44.70717" lon="6.92692">
        <ele>2119</ele>
        <time>2021-02-05T13:11:39Z</time>
      </trkpt>
      <trkpt lat="44.70721" lon="6.9268">
        <ele>2119</ele>
        <time>2021-02-05T13:11:41Z</time>
      </trkpt>
      <trkpt lat="44.70732" lon="6.92653">
        <ele>2118</ele>
        <time>2021-02-05T13:11:45Z</time>
      </trkpt>
      <trkpt lat="44.70741" lon="6.92628">
        <ele>2117</ele>
        <time>2021-02-05T13:11:49Z</time>
      </trkpt>
      <trkpt lat="44.70753" lon="6.926">
        <ele>2115</ele>
        <time>2021-02-05T13:11:53Z</time>
      </trkpt>
      <trkpt lat="44.70759" lon="6.92584">
        <ele>2113</ele>
        <time>2021-02-05T13:11:55Z</time>
      </trkpt>
      <trkpt lat="44.70766" lon="6.92568">
        <ele>2111</ele>
        <time>2021-02-05T13:11:57Z</time>
      </trkpt>
      <trkpt lat="44.70773" lon="6.92552">
        <ele>2109</ele>
        <time>2021-02-05T13:11:59Z</time>
      </trkpt>
      <trkpt lat="44.7078" lon="6.92537">
        <ele>2107</ele>
        <time>2021-02-05T13:12:01Z</time>
      </trkpt>
      <trkpt lat="44.70788" lon="6.92521">
        <ele>2105</ele>
        <time>2021-02-05T13:12:03Z</time>
      </trkpt>
      <trkpt lat="44.70837" lon="6.92421">
        <ele>2099</ele>
        <time>2021-02-05T13:12:15Z</time>
      </trkpt>
      <trkpt lat="44.70847" lon="6.92408">
        <ele>2096</ele>
        <time>2021-02-05T13:12:17Z</time>
      </trkpt>
      <trkpt lat="44.70865" lon="6.92375">
        <ele>2093</ele>
        <time>2021-02-05T13:12:21Z</time>
      </trkpt>
      <trkpt lat="44.70869" lon="6.92365">
        <ele>2092</ele>
        <time>2021-02-05T13:12:22Z</time>
      </trkpt>
      <trkpt lat="44.70885" lon="6.92338">
        <ele>2090</ele>
        <time>2021-02-05T13:12:25Z</time>
      </trkpt>
      <trkpt lat="44.70893" lon="6.9233">
        <ele>2089</ele>
        <time>2021-02-05T13:12:26Z</time>
      </trkpt>
      <trkpt lat="44.70908" lon="6.92315">
        <ele>2086</ele>
        <time>2021-02-05T13:12:28Z</time>
      </trkpt>
      <trkpt lat="44.70926" lon="6.92303">
        <ele>2083</ele>
        <time>2021-02-05T13:12:30Z</time>
      </trkpt>
      <trkpt lat="44.70945" lon="6.92294">
        <ele>2080</ele>
        <time>2021-02-05T13:12:32Z</time>
      </trkpt>
      <trkpt lat="44.70954" lon="6.92292">
        <ele>2079</ele>
        <time>2021-02-05T13:12:33Z</time>
      </trkpt>
      <trkpt lat="44.71017" lon="6.92269">
        <ele>2071</ele>
        <time>2021-02-05T13:12:40Z</time>
      </trkpt>
      <trkpt lat="44.71043" lon="6.92253">
        <ele>2067</ele>
        <time>2021-02-05T13:12:43Z</time>
      </trkpt>
      <trkpt lat="44.7105" lon="6.92246">
        <ele>2066</ele>
        <time>2021-02-05T13:12:44Z</time>
      </trkpt>
      <trkpt lat="44.71076" lon="6.92207">
        <ele>2061</ele>
        <time>2021-02-05T13:12:48Z</time>
      </trkpt>
      <trkpt lat="44.7109" lon="6.92188">
        <ele>2058</ele>
        <time>2021-02-05T13:12:50Z</time>
      </trkpt>
      <trkpt lat="44.71216" lon="6.92016">
        <ele>2051</ele>
        <time>2021-02-05T13:13:15Z</time>
      </trkpt>
      <trkpt lat="44.71236" lon="6.91963">
        <ele>2049</ele>
        <time>2021-02-05T13:13:25Z</time>
      </trkpt>
      <trkpt lat="44.71241" lon="6.91943">
        <ele>2048</ele>
        <time>2021-02-05T13:13:29Z</time>
      </trkpt>
      <trkpt lat="44.71261" lon="6.91909">
        <ele>2046</ele>
        <time>2021-02-05T13:13:37Z</time>
      </trkpt>
      <trkpt lat="44.71322" lon="6.91841">
        <ele>2039</ele>
        <time>2021-02-05T13:13:53Z</time>
      </trkpt>
      <trkpt lat="44.71338" lon="6.91827">
        <ele>2039</ele>
        <time>2021-02-05T13:13:57Z</time>
      </trkpt>
      <trkpt lat="44.7142" lon="6.91714">
        <ele>2036</ele>
        <time>2021-02-05T13:14:27Z</time>
      </trkpt>
      <trkpt lat="44.71486" lon="6.91643">
        <ele>2033</ele>
        <time>2021-02-05T13:14:54Z</time>
      </trkpt>
      <trkpt lat="44.71513" lon="6.91531">
        <ele>2034</ele>
        <time>2021-02-05T13:15:24Z</time>
      </trkpt>
      <trkpt lat="44.71548" lon="6.91458">
        <ele>2029</ele>
        <time>2021-02-05T13:15:43Z</time>
      </trkpt>
      <trkpt lat="44.7157" lon="6.91427">
        <ele>2025</ele>
        <time>2021-02-05T13:15:51Z</time>
      </trkpt>
      <trkpt lat="44.71609" lon="6.91382">
        <ele>2022</ele>
        <time>2021-02-05T13:16:03Z</time>
      </trkpt>
      <trkpt lat="44.71644" lon="6.91286">
        <ele>2016</ele>
        <time>2021-02-05T13:16:30Z</time>
      </trkpt>
      <trkpt lat="44.71651" lon="6.91252">
        <ele>2014</ele>
        <time>2021-02-05T13:16:39Z</time>
      </trkpt>
      <trkpt lat="44.71656" lon="6.91241">
        <ele>2014</ele>
        <time>2021-02-05T13:16:42Z</time>
      </trkpt>
      <trkpt lat="44.71681" lon="6.91153">
        <ele>2013</ele>
        <time>2021-02-05T13:17:10Z</time>
      </trkpt>
      <trkpt lat="44.71712" lon="6.91097">
        <ele>2010</ele>
        <time>2021-02-05T13:17:25Z</time>
      </trkpt>
      <trkpt lat="44.71748" lon="6.91045">
        <ele>2007</ele>
        <time>2021-02-05T13:17:46Z</time>
      </trkpt>
      <trkpt lat="44.71758" lon="6.91023">
        <ele>2005</ele>
        <time>2021-02-05T13:17:54Z</time>
      </trkpt>
      <trkpt lat="44.71761" lon="6.91013">
        <ele>2004</ele>
        <time>2021-02-05T13:17:57Z</time>
      </trkpt>
      <trkpt lat="44.71779" lon="6.90916">
        <ele>2002</ele>
        <time>2021-02-05T13:18:22Z</time>
      </trkpt>
      <trkpt lat="44.71791" lon="6.90862">
        <ele>2000</ele>
        <time>2021-02-05T13:18:34Z</time>
      </trkpt>
      <trkpt lat="44.71812" lon="6.90703">
        <ele>1993</ele>
        <time>2021-02-05T13:19:06Z</time>
      </trkpt>
      <trkpt lat="44.71817" lon="6.90666">
        <ele>1992</ele>
        <time>2021-02-05T13:19:15Z</time>
      </trkpt>
      <trkpt lat="44.71824" lon="6.90648">
        <ele>1989</ele>
        <time>2021-02-05T13:20:51Z</time>
      </trkpt>
      <trkpt lat="44.71833" lon="6.90618">
        <ele>1988</ele>
        <time>2021-02-05T13:21:24Z</time>
      </trkpt>
      <trkpt lat="44.71846" lon="6.9059">
        <ele>1987</ele>
        <time>2021-02-05T13:21:59Z</time>
      </trkpt>
      <trkpt lat="44.7186" lon="6.90548">
        <ele>1986</ele>
        <time>2021-02-05T13:22:29Z</time>
      </trkpt>
      <trkpt lat="44.71877" lon="6.905">
        <ele>1986</ele>
        <time>2021-02-05T13:22:40Z</time>
      </trkpt>
      <trkpt lat="44.71882" lon="6.90489">
        <ele>1984</ele>
        <time>2021-02-05T13:22:43Z</time>
      </trkpt>
      <trkpt lat="44.71889" lon="6.90484">
        <ele>1983</ele>
        <time>2021-02-05T13:22:47Z</time>
      </trkpt>
      <trkpt lat="44.71893" lon="6.90475">
        <ele>1981</ele>
        <time>2021-02-05T13:22:52Z</time>
      </trkpt>
      <trkpt lat="44.71894" lon="6.90464">
        <ele>1981</ele>
        <time>2021-02-05T13:22:58Z</time>
      </trkpt>
      <trkpt lat="44.71893" lon="6.90452">
        <ele>1982</ele>
        <time>2021-02-05T13:23:02Z</time>
      </trkpt>
      <trkpt lat="44.71894" lon="6.90441">
        <ele>1984</ele>
        <time>2021-02-05T13:23:06Z</time>
      </trkpt>
      <trkpt lat="44.71906" lon="6.90428">
        <ele>1987</ele>
        <time>2021-02-05T13:23:59Z</time>
      </trkpt>
      <trkpt lat="44.71923" lon="6.90412">
        <ele>1991</ele>
        <time>2021-02-05T13:24:01Z</time>
      </trkpt>
    </trkseg>
  </trk>
</gpx>